Time,TemperatureF,DewpointF,PressureIn,WindDirection,WindDirectionDegrees,WindSpeedMPH,WindSpeedGustMPH,Humidity,HourlyPrecipIn,Conditions,Clouds,dailyrainin,SoftwareType,DateUTC
2013-09-07 00:00:00,55.5,54.6,30.11,SE,128,0.0,1.0,97,0.00,,,0.01,WUHU216DAVISVP2,2013-09-07 07:00:00,
2013-09-07 00:01:00,55.4,54.5,30.11,SE,128,0.0,1.0,97,0.00,,,0.00,WUHU216DAVISVP2,2013-09-07 07:01:00,
2013-09-07 00:03:00,55.3,54.4,30.10,SE,128,0.0,1.0,97,0.00,,,0.00,WUHU216DAVISVP2,2013-09-07 07:03:00,
2013-09-07 00:04:00,55.3,54.4,30.10,SE,128,0.0,1.0,97,0.00,,,0.00,WUHU216DAVISVP2,2013-09-07 07:04:00,
2013-09-07 00:05:00,55.3,54.4,30.10,SE,128,0.0,1.0,97,0.00,,,0.00,WUHU216DAVISVP2,2013-09-07 07:05:00,
2013-09-07 00:07:00,55.3,54.4,30.10,SE,128,0.0,1.0,97,0.00,,,0.00,WUHU216DAVISVP2,2013-09-07 07:07:00,
2013-09-07 00:08:00,55.2,54.3,30.10,SE,128,0.0,1.0,97,0.00,,,0.00,WUHU216DAVISVP2,2013-09-07 07:08:00,
2013-09-07 00:09:00,55.1,54.2,30.10,SE,128,0.0,1.0,97,0.00,,,0.00,WUHU216DAVISVP2,2013-09-07 07:09:00,
2013-09-07 00:11:00,55.1,54.3,30.10,SE,128,0.0,1.0,97,0.00,,,0.00,WUHU216DAVISVP2,2013-09-07 07:11:00,
2013-09-07 00:12:00,55.1,54.2,30.11,SE,128,0.0,1.0,97,0.00,,,0.00,WUHU216DAVISVP2,2013-09-07 07:12:00,
2013-09-07 00:13:00,55.1,54.5,30.11,SE,128,0.0,0.0,98,0.00,,,0.00,WUHU216DAVISVP2,2013-09-07 07:13:00,
2013-09-07 00:14:00,55.1,54.5,30.11,SE,128,0.0,0.0,98,0.00,,,0.00,WUHU216DAVISVP2,2013-09-07 07:14:00,
2013-09-07 00:15:00,55.1,54.5,30.11,SE,128,0.0,0.0,98,0.00,,,0.00,WUHU216DAVISVP2,2013-09-07 07:15:00,
2013-09-07 00:17:00,55.1,54.5,30.11,SE,128,0.0,0.0,98,0.00,,,0.00,WUHU216DAVISVP2,2013-09-07 07:17:00,
2013-09-07 00:18:00,55.1,54.5,30.11,SE,128,0.0,0.0,98,0.00,,,0.00,WUHU216DAVISVP2,2013-09-07 07:18:00,
2013-09-07 00:19:00,55.1,54.5,30.11,SE,128,0.0,0.0,98,0.00,,,0.00,WUHU216DAVISVP2,2013-09-07 07:19:00,
2013-09-07 00:21:00,55.1,54.5,30.10,SE,128,0.0,0.0,98,0.00,,,0.00,WUHU216DAVISVP2,2013-09-07 07:21:00,
2013-09-07 00:22:00,55.0,54.4,30.10,SE,128,0.0,0.0,98,0.00,,,0.00,WUHU216DAVISVP2,2013-09-07 07:22:00,
2013-09-07 00:23:00,55.0,54.4,30.10,SE,128,0.0,0.0,98,0.00,,,0.00,WUHU216DAVISVP2,2013-09-07 07:23:00,
2013-09-07 00:24:00,55.0,54.4,30.10,SE,128,0.0,0.0,98,0.00,,,0.00,WUHU216DAVISVP2,2013-09-07 07:24:00,
2013-09-07 00:26:00,54.9,54.3,30.10,SE,128,0.0,0.0,98,0.00,,,0.00,WUHU216DAVISVP2,2013-09-07 07:26:00,
2013-09-07 00:27:00,54.9,54.3,30.10,SE,128,0.0,0.0,98,0.00,,,0.00,WUHU216DAVISVP2,2013-09-07 07:27:00,
2013-09-07 00:28:00,54.9,54.3,30.10,SE,128,0.0,0.0,98,0.00,,,0.00,WUHU216DAVISVP2,2013-09-07 07:28:00,
2013-09-07 00:29:00,54.9,54.3,30.10,SE,128,0.0,0.0,98,0.00,,,0.00,WUHU216DAVISVP2,2013-09-07 07:29:00,
2013-09-07 00:31:00,54.9,54.3,30.10,SE,128,0.0,0.0,98,0.00,,,0.00,WUHU216DAVISVP2,2013-09-07 07:31:00,
2013-09-07 00:32:00,54.9,54.3,30.11,SE,128,0.0,0.0,98,0.00,,,0.00,WUHU216DAVISVP2,2013-09-07 07:32:00,
2013-09-07 00:33:00,54.9,54.3,30.10,SE,128,0.0,0.0,98,0.00,,,0.00,WUHU216DAVISVP2,2013-09-07 07:33:00,
2013-09-07 00:34:00,54.9,54.3,30.11,SE,128,0.0,0.0,98,0.00,,,0.00,WUHU216DAVISVP2,2013-09-07 07:34:00,
2013-09-07 00:37:00,54.9,54.3,30.10,SE,128,0.0,0.0,98,0.00,,,0.00,WUHU216DAVISVP2,2013-09-07 07:37:00,
2013-09-07 00:38:00,54.9,54.3,30.10,SE,128,0.0,0.0,98,0.00,,,0.00,WUHU216DAVISVP2,2013-09-07 07:38:00,
2013-09-07 00:39:00,54.9,54.3,30.10,SE,128,0.0,0.0,98,0.00,,,0.00,WUHU216DAVISVP2,2013-09-07 07:39:00,
2013-09-07 00:42:00,54.9,54.3,30.10,SE,128,0.0,0.0,98,0.00,,,0.00,WUHU216DAVISVP2,2013-09-07 07:42:00,
2013-09-07 00:43:00,54.9,54.3,30.10,SE,128,0.0,0.0,98,0.00,,,0.00,WUHU216DAVISVP2,2013-09-07 07:43:00,
2013-09-07 00:44:00,54.9,54.3,30.10,SE,128,0.0,0.0,98,0.00,,,0.00,WUHU216DAVISVP2,2013-09-07 07:44:00,
2013-09-07 00:46:00,54.8,54.2,30.10,SE,128,0.0,0.0,98,0.00,,,0.00,WUHU216DAVISVP2,2013-09-07 07:46:00,
2013-09-07 00:48:00,54.7,54.1,30.10,SE,128,0.0,0.0,98,0.00,,,0.00,WUHU216DAVISVP2,2013-09-07 07:48:00,
2013-09-07 00:49:00,54.7,54.1,30.10,SE,128,0.0,0.0,98,0.00,,,0.00,WUHU216DAVISVP2,2013-09-07 07:49:00,
2013-09-07 00:52:00,54.7,54.1,30.10,SE,128,0.0,0.0,98,0.00,,,0.00,WUHU216DAVISVP2,2013-09-07 07:52:00,
2013-09-07 00:53:00,54.6,54.0,30.10,SE,128,0.0,0.0,98,0.00,,,0.00,WUHU216DAVISVP2,2013-09-07 07:53:00,
2013-09-07 00:54:00,54.6,54.0,30.10,SE,128,0.0,0.0,98,0.00,,,0.00,WUHU216DAVISVP2,2013-09-07 07:54:00,
2013-09-07 00:57:00,54.4,53.8,30.10,SE,128,0.0,0.0,98,0.00,,,0.00,WUHU216DAVISVP2,2013-09-07 07:57:00,
2013-09-07 00:58:00,54.4,53.8,30.10,SE,128,0.0,0.0,98,0.00,,,0.00,WUHU216DAVISVP2,2013-09-07 07:58:00,
2013-09-07 00:59:00,54.4,53.8,30.10,SE,128,0.0,0.0,98,0.00,,,0.00,WUHU216DAVISVP2,2013-09-07 07:59:00,
2013-09-07 01:00:00,54.4,53.8,30.10,SE,128,0.0,0.0,98,0.00,,,0.00,WUHU216DAVISVP2,2013-09-07 08:00:00,
2013-09-07 01:02:00,54.4,53.8,30.10,SE,128,0.0,0.0,98,0.00,,,0.00,WUHU216DAVISVP2,2013-09-07 08:02:00,
2013-09-07 01:04:00,54.5,53.9,30.10,SE,128,0.0,0.0,98,0.00,,,0.00,WUHU216DAVISVP2,2013-09-07 08:04:00,
2013-09-07 01:05:00,54.5,53.9,30.10,SE,128,0.0,0.0,98,0.00,,,0.00,WUHU216DAVISVP2,2013-09-07 08:05:00,
2013-09-07 01:07:00,54.6,54.0,30.10,SE,128,0.0,0.0,98,0.00,,,0.00,WUHU216DAVISVP2,2013-09-07 08:07:00,
2013-09-07 01:09:00,54.7,54.1,30.10,SE,128,0.0,0.0,98,0.00,,,0.00,WUHU216DAVISVP2,2013-09-07 08:09:00,
2013-09-07 01:10:00,54.8,54.2,30.10,SE,128,0.0,0.0,98,0.00,,,0.00,WUHU216DAVISVP2,2013-09-07 08:10:00,
2013-09-07 01:12:00,54.8,54.2,30.10,SE,128,0.0,0.0,98,0.00,,,0.00,WUHU216DAVISVP2,2013-09-07 08:12:00,
2013-09-07 01:14:00,54.8,54.2,30.10,SE,128,0.0,0.0,98,0.00,,,0.00,WUHU216DAVISVP2,2013-09-07 08:14:00,
2013-09-07 01:15:00,54.8,54.2,30.10,SE,128,0.0,0.0,98,0.00,,,0.00,WUHU216DAVISVP2,2013-09-07 08:15:00,
2013-09-07 01:16:00,54.8,54.2,30.10,SE,128,0.0,0.0,98,0.00,,,0.00,WUHU216DAVISVP2,2013-09-07 08:16:00,
2013-09-07 01:18:00,54.7,54.1,30.10,SE,128,0.0,0.0,98,0.00,,,0.00,WUHU216DAVISVP2,2013-09-07 08:18:00,
2013-09-07 01:19:00,54.7,54.1,30.10,SE,128,0.0,0.0,98,0.00,,,0.00,WUHU216DAVISVP2,2013-09-07 08:19:00,
2013-09-07 01:20:00,54.7,54.1,30.10,SE,128,0.0,0.0,98,0.00,,,0.00,WUHU216DAVISVP2,2013-09-07 08:20:00,
2013-09-07 01:22:00,54.7,54.1,30.10,SE,128,0.0,0.0,98,0.00,,,0.00,WUHU216DAVISVP2,2013-09-07 08:22:00,
2013-09-07 01:24:00,54.6,54.0,30.10,SE,128,0.0,0.0,98,0.00,,,0.00,WUHU216DAVISVP2,2013-09-07 08:24:00,
2013-09-07 01:25:00,54.6,54.0,30.10,SE,128,0.0,0.0,98,0.00,,,0.00,WUHU216DAVISVP2,2013-09-07 08:25:00,
2013-09-07 01:27:00,54.6,54.0,30.10,SE,128,0.0,0.0,98,0.00,,,0.00,WUHU216DAVISVP2,2013-09-07 08:27:00,
2013-09-07 01:29:00,54.6,54.0,30.10,SE,128,0.0,0.0,98,0.00,,,0.00,WUHU216DAVISVP2,2013-09-07 08:29:00,
2013-09-07 01:30:00,54.6,54.0,30.10,SE,128,0.0,0.0,98,0.00,,,0.00,WUHU216DAVISVP2,2013-09-07 08:30:00,
2013-09-07 01:33:00,54.8,54.2,30.10,SE,128,0.0,0.0,98,0.00,,,0.00,WUHU216DAVISVP2,2013-09-07 08:33:00,
2013-09-07 01:34:00,54.9,54.3,30.10,SE,128,0.0,0.0,98,0.00,,,0.00,WUHU216DAVISVP2,2013-09-07 08:34:00,
2013-09-07 01:35:00,54.9,54.3,30.10,SE,128,0.0,0.0,98,0.00,,,0.00,WUHU216DAVISVP2,2013-09-07 08:35:00,
2013-09-07 01:37:00,55.0,54.4,30.10,SE,128,0.0,0.0,98,0.00,,,0.00,WUHU216DAVISVP2,2013-09-07 08:37:00,
2013-09-07 01:38:00,55.0,54.4,30.10,SE,128,0.0,0.0,98,0.00,,,0.00,WUHU216DAVISVP2,2013-09-07 08:38:00,
2013-09-07 01:39:00,55.0,54.4,30.10,SE,128,0.0,0.0,98,0.00,,,0.00,WUHU216DAVISVP2,2013-09-07 08:39:00,
2013-09-07 01:40:00,55.1,54.5,30.09,SE,128,0.0,0.0,98,0.00,,,0.00,WUHU216DAVISVP2,2013-09-07 08:40:00,
2013-09-07 01:41:00,55.1,54.5,30.09,SE,128,0.0,0.0,98,0.00,,,0.00,WUHU216DAVISVP2,2013-09-07 08:41:00,
2013-09-07 01:43:00,55.1,54.5,30.09,SE,128,0.0,0.0,98,0.00,,,0.00,WUHU216DAVISVP2,2013-09-07 08:43:00,
2013-09-07 01:44:00,55.2,54.6,30.09,SE,126,0.0,0.0,98,0.00,,,0.00,WUHU216DAVISVP2,2013-09-07 08:44:00,
2013-09-07 01:45:00,55.2,54.6,30.09,SE,126,0.0,0.0,98,0.00,,,0.00,WUHU216DAVISVP2,2013-09-07 08:45:00,
2013-09-07 01:46:00,55.2,54.6,30.09,SE,126,0.0,1.0,98,0.00,,,0.00,WUHU216DAVISVP2,2013-09-07 08:46:00,
2013-09-07 01:49:00,55.3,54.7,30.09,SE,126,0.0,1.0,98,0.00,,,0.00,WUHU216DAVISVP2,2013-09-07 08:49:00,
2013-09-07 01:50:00,55.3,54.7,30.09,SE,126,0.0,1.0,98,0.00,,,0.00,WUHU216DAVISVP2,2013-09-07 08:50:00,
2013-09-07 01:52:00,55.3,54.7,30.09,SE,126,0.0,1.0,98,0.00,,,0.00,WUHU216DAVISVP2,2013-09-07 08:52:00,
2013-09-07 01:55:00,55.2,54.6,30.09,SE,126,0.0,1.0,98,0.00,,,0.00,WUHU216DAVISVP2,2013-09-07 08:55:00,
2013-09-07 01:56:00,55.2,54.6,30.09,SE,126,0.0,1.0,98,0.00,,,0.00,WUHU216DAVISVP2,2013-09-07 08:56:00,
2013-09-07 01:58:00,55.2,54.6,30.09,SE,126,0.0,1.0,98,0.00,,,0.00,WUHU216DAVISVP2,2013-09-07 08:58:00,
2013-09-07 02:00:00,55.2,54.6,30.08,SE,126,0.0,1.0,98,0.00,,,0.00,WUHU216DAVISVP2,2013-09-07 09:00:00,
2013-09-07 02:01:00,55.2,54.6,30.08,SE,126,0.0,1.0,98,0.00,,,0.00,WUHU216DAVISVP2,2013-09-07 09:01:00,
2013-09-07 02:03:00,55.2,54.6,30.08,SSE,155,0.0,1.0,98,0.00,,,0.00,WUHU216DAVISVP2,2013-09-07 09:03:00,
2013-09-07 02:05:00,55.2,54.6,30.08,SSE,155,0.0,1.0,98,0.00,,,0.00,WUHU216DAVISVP2,2013-09-07 09:05:00,
2013-09-07 02:06:00,55.2,54.6,30.08,SSE,155,0.0,1.0,98,0.00,,,0.00,WUHU216DAVISVP2,2013-09-07 09:06:00,
2013-09-07 02:08:00,55.2,54.6,30.08,SSE,155,0.0,0.0,98,0.00,,,0.00,WUHU216DAVISVP2,2013-09-07 09:08:00,
2013-09-07 02:11:00,55.2,54.6,30.08,South,170,0.0,0.0,98,0.00,,,0.00,WUHU216DAVISVP2,2013-09-07 09:11:00,
2013-09-07 02:14:00,55.1,54.5,30.08,South,169,0.0,0.0,98,0.00,,,0.00,WUHU216DAVISVP2,2013-09-07 09:14:00,
2013-09-07 02:16:00,55.1,54.5,30.08,SSE,168,0.0,0.0,98,0.00,,,0.00,WUHU216DAVISVP2,2013-09-07 09:16:00,
2013-09-07 02:19:00,55.1,54.5,30.08,South,169,0.0,0.0,98,0.00,,,0.00,WUHU216DAVISVP2,2013-09-07 09:19:00,
2013-09-07 02:21:00,55.1,54.5,30.08,SSE,167,0.0,0.0,98,0.00,,,0.00,WUHU216DAVISVP2,2013-09-07 09:21:00,
2013-09-07 02:25:00,55.1,54.5,30.08,SSE,165,0.0,0.0,98,0.00,,,0.00,WUHU216DAVISVP2,2013-09-07 09:25:00,
2013-09-07 02:26:00,55.1,54.5,30.08,SSE,165,0.0,0.0,98,0.00,,,0.00,WUHU216DAVISVP2,2013-09-07 09:26:00,
2013-09-07 02:27:00,55.0,54.4,30.08,SSE,165,0.0,0.0,98,0.00,,,0.00,WUHU216DAVISVP2,2013-09-07 09:27:00,
2013-09-07 02:28:00,55.0,54.4,30.08,SSE,165,0.0,0.0,98,0.00,,,0.00,WUHU216DAVISVP2,2013-09-07 09:28:00,
2013-09-07 02:30:00,55.0,54.4,30.08,SSE,160,0.0,0.0,98,0.00,,,0.00,WUHU216DAVISVP2,2013-09-07 09:30:00,
2013-09-07 02:31:00,55.0,54.4,30.08,SSE,160,0.0,0.0,98,0.00,,,0.00,WUHU216DAVISVP2,2013-09-07 09:31:00,
2013-09-07 02:33:00,55.0,54.4,30.08,SSE,160,0.0,0.0,98,0.00,,,0.00,WUHU216DAVISVP2,2013-09-07 09:33:00,
2013-09-07 02:34:00,55.0,54.4,30.08,SSE,160,0.0,0.0,98,0.00,,,0.00,WUHU216DAVISVP2,2013-09-07 09:34:00,
2013-09-07 02:36:00,54.9,54.3,30.08,SSE,160,0.0,0.0,98,0.00,,,0.00,WUHU216DAVISVP2,2013-09-07 09:36:00,
2013-09-07 02:37:00,54.9,54.3,30.08,SSE,160,0.0,0.0,98,0.00,,,0.00,WUHU216DAVISVP2,2013-09-07 09:37:00,
2013-09-07 02:38:00,54.9,54.3,30.08,SSE,160,0.0,0.0,98,0.00,,,0.00,WUHU216DAVISVP2,2013-09-07 09:38:00,
2013-09-07 02:39:00,54.9,54.3,30.08,SSE,160,0.0,0.0,98,0.00,,,0.00,WUHU216DAVISVP2,2013-09-07 09:39:00,
2013-09-07 02:41:00,54.7,54.1,30.08,SSE,160,0.0,0.0,98,0.00,,,0.00,WUHU216DAVISVP2,2013-09-07 09:41:00,
2013-09-07 02:43:00,54.7,54.1,30.08,SSE,160,0.0,0.0,98,0.00,,,0.00,WUHU216DAVISVP2,2013-09-07 09:43:00,
2013-09-07 02:46:00,54.6,54.0,30.08,SSE,160,0.0,0.0,98,0.00,,,0.00,WUHU216DAVISVP2,2013-09-07 09:46:00,
2013-09-07 02:47:00,54.5,53.9,30.08,SSE,160,0.0,0.0,98,0.00,,,0.00,WUHU216DAVISVP2,2013-09-07 09:47:00,
2013-09-07 02:48:00,54.5,53.9,30.08,SSE,160,0.0,0.0,98,0.00,,,0.00,WUHU216DAVISVP2,2013-09-07 09:48:00,
2013-09-07 02:49:00,54.5,53.9,30.08,SSE,160,0.0,0.0,98,0.00,,,0.00,WUHU216DAVISVP2,2013-09-07 09:49:00,
2013-09-07 02:51:00,54.5,53.9,30.08,SSE,160,0.0,0.0,98,0.00,,,0.00,WUHU216DAVISVP2,2013-09-07 09:51:00,
2013-09-07 02:52:00,54.5,53.9,30.08,SSE,160,0.0,0.0,98,0.00,,,0.00,WUHU216DAVISVP2,2013-09-07 09:52:00,
2013-09-07 02:54:00,54.6,54.0,30.08,SSE,160,0.0,0.0,98,0.00,,,0.00,WUHU216DAVISVP2,2013-09-07 09:54:00,
2013-09-07 02:55:00,54.6,54.0,30.08,SSE,160,0.0,0.0,98,0.00,,,0.00,WUHU216DAVISVP2,2013-09-07 09:55:00,
2013-09-07 02:56:00,54.6,54.0,30.07,SSE,160,0.0,0.0,98,0.00,,,0.00,WUHU216DAVISVP2,2013-09-07 09:56:00,
2013-09-07 02:57:00,54.6,54.0,30.07,SSE,160,0.0,0.0,98,0.00,,,0.00,WUHU216DAVISVP2,2013-09-07 09:57:00,
2013-09-07 02:59:00,54.6,54.0,30.07,SSE,160,0.0,0.0,98,0.00,,,0.00,WUHU216DAVISVP2,2013-09-07 09:59:00,
2013-09-07 03:01:00,54.6,54.0,30.07,SSW,203,0.0,0.0,98,0.00,,,0.00,WUHU216DAVISVP2,2013-09-07 10:01:00,
2013-09-07 03:02:00,54.6,54.0,30.07,SSW,203,0.0,0.0,98,0.00,,,0.00,WUHU216DAVISVP2,2013-09-07 10:02:00,
2013-09-07 03:03:00,54.6,54.0,30.07,SSW,203,0.0,0.0,98,0.00,,,0.00,WUHU216DAVISVP2,2013-09-07 10:03:00,
2013-09-07 03:04:00,54.5,53.9,30.08,SSW,203,0.0,0.0,98,0.00,,,0.00,WUHU216DAVISVP2,2013-09-07 10:04:00,
2013-09-07 03:06:00,54.5,53.9,30.08,SSW,203,0.0,0.0,98,0.00,,,0.00,WUHU216DAVISVP2,2013-09-07 10:06:00,
2013-09-07 03:07:00,54.4,53.8,30.08,SSW,203,0.0,0.0,98,0.00,,,0.00,WUHU216DAVISVP2,2013-09-07 10:07:00,
2013-09-07 03:08:00,54.4,53.8,30.08,SSW,203,0.0,0.0,98,0.00,,,0.00,WUHU216DAVISVP2,2013-09-07 10:08:00,
2013-09-07 03:09:00,54.4,53.8,30.08,SSW,203,0.0,0.0,98,0.00,,,0.00,WUHU216DAVISVP2,2013-09-07 10:09:00,
2013-09-07 03:12:00,54.3,53.7,30.08,SSW,203,0.0,0.0,98,0.00,,,0.00,WUHU216DAVISVP2,2013-09-07 10:12:00,
2013-09-07 03:13:00,54.3,53.7,30.07,SSW,203,0.0,0.0,98,0.00,,,0.00,WUHU216DAVISVP2,2013-09-07 10:13:00,
2013-09-07 03:14:00,54.3,53.7,30.08,SSW,203,0.0,0.0,98,0.00,,,0.00,WUHU216DAVISVP2,2013-09-07 10:14:00,
2013-09-07 03:17:00,54.2,53.6,30.07,SSW,203,0.0,0.0,98,0.00,,,0.00,WUHU216DAVISVP2,2013-09-07 10:17:00,
2013-09-07 03:18:00,54.1,53.5,30.07,SSW,203,0.0,0.0,98,0.00,,,0.00,WUHU216DAVISVP2,2013-09-07 10:18:00,
2013-09-07 03:20:00,54.0,53.4,30.07,SSW,203,0.0,0.0,98,0.00,,,0.00,WUHU216DAVISVP2,2013-09-07 10:20:00,
2013-09-07 03:22:00,53.9,53.3,30.07,SSW,203,0.0,0.0,98,0.00,,,0.00,WUHU216DAVISVP2,2013-09-07 10:22:00,
2013-09-07 03:23:00,53.8,53.2,30.07,SSW,203,0.0,0.0,98,0.00,,,0.00,WUHU216DAVISVP2,2013-09-07 10:23:00,
2013-09-07 03:25:00,53.8,53.2,30.07,SSW,203,0.0,0.0,98,0.00,,,0.00,WUHU216DAVISVP2,2013-09-07 10:25:00,
2013-09-07 03:27:00,53.8,53.2,30.07,SSW,203,0.0,0.0,98,0.00,,,0.00,WUHU216DAVISVP2,2013-09-07 10:27:00,
2013-09-07 03:28:00,53.8,53.2,30.07,SSW,203,0.0,0.0,98,0.00,,,0.00,WUHU216DAVISVP2,2013-09-07 10:28:00,
2013-09-07 03:30:00,53.7,53.1,30.07,SSW,203,0.0,0.0,98,0.00,,,0.00,WUHU216DAVISVP2,2013-09-07 10:30:00,
2013-09-07 03:32:00,53.7,53.1,30.07,SSW,203,0.0,0.0,98,0.00,,,0.00,WUHU216DAVISVP2,2013-09-07 10:32:00,
2013-09-07 03:33:00,53.7,53.1,30.07,SSW,203,0.0,0.0,98,0.00,,,0.00,WUHU216DAVISVP2,2013-09-07 10:33:00,
2013-09-07 03:37:00,53.8,53.2,30.07,SSW,203,0.0,0.0,98,0.00,,,0.00,WUHU216DAVISVP2,2013-09-07 10:37:00,
2013-09-07 03:38:00,53.8,53.2,30.07,SSW,203,0.0,0.0,98,0.00,,,0.00,WUHU216DAVISVP2,2013-09-07 10:38:00,
2013-09-07 03:43:00,53.9,53.6,30.06,SSW,198,0.0,0.0,99,0.00,,,0.00,WUHU216DAVISVP2,2013-09-07 10:43:00,
2013-09-07 03:44:00,53.9,53.6,30.06,SSW,198,0.0,0.0,99,0.00,,,0.00,WUHU216DAVISVP2,2013-09-07 10:44:00,
2013-09-07 03:48:00,53.9,53.6,30.06,SSW,198,0.0,0.0,99,0.00,,,0.00,WUHU216DAVISVP2,2013-09-07 10:48:00,
2013-09-07 03:49:00,53.9,53.6,30.06,SSW,198,0.0,0.0,99,0.00,,,0.00,WUHU216DAVISVP2,2013-09-07 10:49:00,
2013-09-07 03:50:00,53.9,53.6,30.06,SSW,197,0.0,0.0,99,0.00,,,0.00,WUHU216DAVISVP2,2013-09-07 10:50:00,
2013-09-07 03:53:00,53.8,53.5,30.06,SSW,197,0.0,0.0,99,0.00,,,0.00,WUHU216DAVISVP2,2013-09-07 10:53:00,
2013-09-07 03:54:00,53.7,53.4,30.06,SSW,197,0.0,0.0,99,0.00,,,0.00,WUHU216DAVISVP2,2013-09-07 10:54:00,
2013-09-07 03:55:00,53.7,53.4,30.06,SSW,198,0.0,0.0,99,0.00,,,0.00,WUHU216DAVISVP2,2013-09-07 10:55:00,
2013-09-07 03:58:00,53.6,53.0,30.06,SSW,198,0.0,0.0,98,0.00,,,0.00,WUHU216DAVISVP2,2013-09-07 10:58:00,
2013-09-07 04:00:00,53.5,52.9,30.06,SSW,197,0.0,0.0,98,0.00,,,0.00,WUHU216DAVISVP2,2013-09-07 11:00:00,
2013-09-07 04:01:00,53.5,52.9,30.06,SSW,197,0.0,0.0,98,0.00,,,0.00,WUHU216DAVISVP2,2013-09-07 11:01:00,
2013-09-07 04:03:00,53.4,52.8,30.06,SSW,198,0.0,0.0,98,0.00,,,0.00,WUHU216DAVISVP2,2013-09-07 11:03:00,
2013-09-07 04:05:00,53.4,52.8,30.06,SSW,197,0.0,0.0,98,0.00,,,0.00,WUHU216DAVISVP2,2013-09-07 11:05:00,
2013-09-07 04:06:00,53.4,52.8,30.06,SSW,198,0.0,0.0,98,0.00,,,0.00,WUHU216DAVISVP2,2013-09-07 11:06:00,
2013-09-07 04:08:00,53.4,53.1,30.06,SSW,197,0.0,0.0,99,0.00,,,0.00,WUHU216DAVISVP2,2013-09-07 11:08:00,
2013-09-07 04:10:00,53.3,53.0,30.06,SSW,197,0.0,0.0,99,0.00,,,0.00,WUHU216DAVISVP2,2013-09-07 11:10:00,
2013-09-07 04:12:00,53.4,53.1,30.06,SSW,198,0.0,0.0,99,0.00,,,0.00,WUHU216DAVISVP2,2013-09-07 11:12:00,
2013-09-07 04:13:00,53.4,53.1,30.06,SSW,197,0.0,0.0,99,0.00,,,0.00,WUHU216DAVISVP2,2013-09-07 11:13:00,
2013-09-07 04:15:00,53.4,53.1,30.06,SSW,197,0.0,0.0,99,0.00,,,0.00,WUHU216DAVISVP2,2013-09-07 11:15:00,
2013-09-07 04:17:00,53.4,53.1,30.06,SSW,197,0.0,0.0,99,0.00,,,0.00,WUHU216DAVISVP2,2013-09-07 11:17:00,
2013-09-07 04:18:00,53.4,53.1,30.06,SSW,197,0.0,0.0,99,0.00,,,0.00,WUHU216DAVISVP2,2013-09-07 11:18:00,
2013-09-07 04:19:00,53.3,53.0,30.06,SSW,198,0.0,0.0,99,0.00,,,0.00,WUHU216DAVISVP2,2013-09-07 11:19:00,
2013-09-07 04:21:00,53.3,53.0,30.06,SSW,198,0.0,0.0,99,0.00,,,0.00,WUHU216DAVISVP2,2013-09-07 11:21:00,
2013-09-07 04:23:00,53.2,52.9,30.06,SSW,197,0.0,0.0,99,0.00,,,0.00,WUHU216DAVISVP2,2013-09-07 11:23:00,
2013-09-07 04:24:00,53.3,53.0,30.06,SSW,197,0.0,0.0,99,0.00,,,0.00,WUHU216DAVISVP2,2013-09-07 11:24:00,
2013-09-07 04:25:00,53.3,53.0,30.06,SSW,197,0.0,0.0,99,0.00,,,0.00,WUHU216DAVISVP2,2013-09-07 11:25:00,
2013-09-07 04:26:00,53.3,53.0,30.06,SSW,198,0.0,0.0,99,0.00,,,0.00,WUHU216DAVISVP2,2013-09-07 11:26:00,
2013-09-07 04:28:00,53.3,53.0,30.06,SSW,198,0.0,0.0,99,0.00,,,0.00,WUHU216DAVISVP2,2013-09-07 11:28:00,
2013-09-07 04:29:00,53.3,53.0,30.06,SSW,198,0.0,0.0,99,0.00,,,0.00,WUHU216DAVISVP2,2013-09-07 11:29:00,
2013-09-07 04:30:00,53.2,52.9,30.06,SSW,198,0.0,0.0,99,0.00,,,0.00,WUHU216DAVISVP2,2013-09-07 11:30:00,
2013-09-07 04:31:00,53.2,52.9,30.06,SSW,198,0.0,0.0,99,0.00,,,0.00,WUHU216DAVISVP2,2013-09-07 11:31:00,
2013-09-07 04:33:00,53.1,52.8,30.06,SSW,198,0.0,0.0,99,0.00,,,0.00,WUHU216DAVISVP2,2013-09-07 11:33:00,
2013-09-07 04:34:00,53.0,52.7,30.06,SSW,197,0.0,0.0,99,0.00,,,0.00,WUHU216DAVISVP2,2013-09-07 11:34:00,
2013-09-07 04:35:00,53.0,52.7,30.06,SSW,197,0.0,0.0,99,0.00,,,0.00,WUHU216DAVISVP2,2013-09-07 11:35:00,
2013-09-07 04:36:00,52.9,52.6,30.06,SSW,198,0.0,0.0,99,0.00,,,0.00,WUHU216DAVISVP2,2013-09-07 11:36:00,
2013-09-07 04:38:00,52.9,52.6,30.06,SSW,197,0.0,0.0,99,0.00,,,0.00,WUHU216DAVISVP2,2013-09-07 11:38:00,
2013-09-07 04:39:00,52.9,52.6,30.06,SSW,197,0.0,0.0,99,0.00,,,0.00,WUHU216DAVISVP2,2013-09-07 11:39:00,
2013-09-07 04:40:00,52.9,52.6,30.06,SSW,198,0.0,0.0,99,0.00,,,0.00,WUHU216DAVISVP2,2013-09-07 11:40:00,
2013-09-07 04:41:00,52.9,52.6,30.06,SSW,197,0.0,0.0,99,0.00,,,0.00,WUHU216DAVISVP2,2013-09-07 11:41:00,
2013-09-07 04:43:00,52.8,52.5,30.05,SSW,198,0.0,0.0,99,0.00,,,0.00,WUHU216DAVISVP2,2013-09-07 11:43:00,
2013-09-07 04:44:00,52.8,52.5,30.06,SSW,197,0.0,0.0,99,0.00,,,0.00,WUHU216DAVISVP2,2013-09-07 11:44:00,
2013-09-07 04:45:00,52.7,52.4,30.06,SSW,197,0.0,0.0,99,0.00,,,0.00,WUHU216DAVISVP2,2013-09-07 11:45:00,
2013-09-07 04:46:00,52.7,52.4,30.05,SSW,198,0.0,0.0,99,0.00,,,0.00,WUHU216DAVISVP2,2013-09-07 11:46:00,
2013-09-07 04:47:00,52.7,52.4,30.06,SSW,197,0.0,0.0,99,0.00,,,0.00,WUHU216DAVISVP2,2013-09-07 11:47:00,
2013-09-07 04:48:00,52.8,52.5,30.06,SSW,197,0.0,0.0,99,0.00,,,0.00,WUHU216DAVISVP2,2013-09-07 11:48:00,
2013-09-07 04:49:00,52.8,52.5,30.06,SSW,197,0.0,0.0,99,0.00,,,0.00,WUHU216DAVISVP2,2013-09-07 11:49:00,
2013-09-07 04:51:00,52.8,52.5,30.06,SSW,197,0.0,0.0,99,0.00,,,0.00,WUHU216DAVISVP2,2013-09-07 11:51:00,
2013-09-07 04:52:00,52.8,52.5,30.06,SSW,198,0.0,0.0,99,0.00,,,0.00,WUHU216DAVISVP2,2013-09-07 11:52:00,
2013-09-07 04:53:00,52.7,52.4,30.06,SSW,198,0.0,0.0,99,0.00,,,0.00,WUHU216DAVISVP2,2013-09-07 11:53:00,
2013-09-07 04:55:00,52.7,52.4,30.06,SSW,198,0.0,0.0,99,0.00,,,0.00,WUHU216DAVISVP2,2013-09-07 11:55:00,
2013-09-07 04:56:00,52.6,52.3,30.06,WSW,253,0.0,0.0,99,0.00,,,0.00,WUHU216DAVISVP2,2013-09-07 11:56:00,
2013-09-07 04:57:00,52.6,52.3,30.06,WSW,252,0.0,0.0,99,0.00,,,0.00,WUHU216DAVISVP2,2013-09-07 11:57:00,
2013-09-07 04:58:00,52.7,52.4,30.06,WSW,252,0.0,0.0,99,0.00,,,0.00,WUHU216DAVISVP2,2013-09-07 11:58:00,
2013-09-07 04:59:00,52.6,52.3,30.06,WSW,252,0.0,0.0,99,0.00,,,0.00,WUHU216DAVISVP2,2013-09-07 11:59:00,
2013-09-07 05:00:00,52.6,52.3,30.06,WSW,252,0.0,0.0,99,0.00,,,0.00,WUHU216DAVISVP2,2013-09-07 12:00:00,
2013-09-07 05:01:00,52.6,52.3,30.06,WSW,252,0.0,0.0,99,0.00,,,0.00,WUHU216DAVISVP2,2013-09-07 12:01:00,
2013-09-07 05:02:00,52.6,52.3,30.06,WSW,253,0.0,0.0,99,0.00,,,0.00,WUHU216DAVISVP2,2013-09-07 12:02:00,
2013-09-07 05:04:00,52.5,52.2,30.06,WSW,252,0.0,0.0,99,0.00,,,0.00,WUHU216DAVISVP2,2013-09-07 12:04:00,
2013-09-07 05:05:00,52.5,52.2,30.06,WSW,253,0.0,0.0,99,0.00,,,0.00,WUHU216DAVISVP2,2013-09-07 12:05:00,
2013-09-07 05:07:00,52.7,52.4,30.06,ESE,102,0.0,1.0,99,0.00,,,0.00,WUHU216DAVISVP2,2013-09-07 12:07:00,
2013-09-07 05:09:00,52.8,52.5,30.06,ESE,102,0.0,1.0,99,0.00,,,0.00,WUHU216DAVISVP2,2013-09-07 12:09:00,
2013-09-07 05:10:00,52.9,52.6,30.06,ESE,102,0.0,1.0,99,0.00,,,0.00,WUHU216DAVISVP2,2013-09-07 12:10:00,
2013-09-07 05:12:00,53.1,52.8,30.06,ESE,102,0.0,1.0,99,0.00,,,0.00,WUHU216DAVISVP2,2013-09-07 12:12:00,
2013-09-07 05:14:00,53.2,52.9,30.06,ESE,102,0.0,1.0,99,0.00,,,0.00,WUHU216DAVISVP2,2013-09-07 12:14:00,
2013-09-07 05:15:00,53.3,53.0,30.06,ESE,102,0.0,1.0,99,0.00,,,0.00,WUHU216DAVISVP2,2013-09-07 12:15:00,
2013-09-07 05:17:00,53.3,53.0,30.06,ESE,102,0.0,1.0,99,0.00,,,0.00,WUHU216DAVISVP2,2013-09-07 12:17:00,
2013-09-07 05:19:00,53.2,52.9,30.06,ESE,102,0.0,1.0,99,0.00,,,0.00,WUHU216DAVISVP2,2013-09-07 12:19:00,
2013-09-07 05:20:00,53.2,52.9,30.06,ESE,102,0.0,1.0,99,0.00,,,0.00,WUHU216DAVISVP2,2013-09-07 12:20:00,
2013-09-07 05:22:00,53.2,52.9,30.06,ESE,102,0.0,1.0,99,0.00,,,0.00,WUHU216DAVISVP2,2013-09-07 12:22:00,
2013-09-07 05:24:00,53.2,52.9,30.06,ESE,102,0.0,1.0,99,0.00,,,0.00,WUHU216DAVISVP2,2013-09-07 12:24:00,
2013-09-07 05:25:00,53.2,52.9,30.06,ESE,102,0.0,1.0,99,0.00,,,0.00,WUHU216DAVISVP2,2013-09-07 12:25:00,
2013-09-07 05:27:00,53.3,53.0,30.06,East,101,0.0,0.0,99,0.00,,,0.00,WUHU216DAVISVP2,2013-09-07 12:27:00,
2013-09-07 05:29:00,53.4,53.1,30.06,East,101,0.0,0.0,99,0.00,,,0.00,WUHU216DAVISVP2,2013-09-07 12:29:00,
2013-09-07 05:30:00,53.4,53.1,30.06,East,101,0.0,0.0,99,0.00,,,0.00,WUHU216DAVISVP2,2013-09-07 12:30:00,
2013-09-07 05:32:00,53.3,53.0,30.06,East,101,0.0,0.0,99,0.00,,,0.00,WUHU216DAVISVP2,2013-09-07 12:32:00,
2013-09-07 05:34:00,53.2,52.9,30.06,East,101,0.0,0.0,99,0.00,,,0.00,WUHU216DAVISVP2,2013-09-07 12:34:00,
2013-09-07 05:35:00,53.2,52.9,30.05,East,101,0.0,0.0,99,0.00,,,0.00,WUHU216DAVISVP2,2013-09-07 12:35:00,
2013-09-07 05:36:00,53.2,52.9,30.05,East,101,0.0,0.0,99,0.00,,,0.00,WUHU216DAVISVP2,2013-09-07 12:36:00,
2013-09-07 05:37:00,53.1,52.8,30.05,East,101,0.0,0.0,99,0.00,,,0.00,WUHU216DAVISVP2,2013-09-07 12:37:00,
2013-09-07 05:39:00,53.0,52.7,30.05,East,101,0.0,0.0,99,0.00,,,0.00,WUHU216DAVISVP2,2013-09-07 12:39:00,
2013-09-07 05:40:00,52.9,52.6,30.05,East,101,0.0,0.0,99,0.00,,,0.00,WUHU216DAVISVP2,2013-09-07 12:40:00,
2013-09-07 05:41:00,52.9,52.6,30.05,East,101,0.0,0.0,99,0.00,,,0.00,WUHU216DAVISVP2,2013-09-07 12:41:00,
2013-09-07 05:43:00,52.9,52.6,30.05,East,101,0.0,0.0,99,0.00,,,0.00,WUHU216DAVISVP2,2013-09-07 12:43:00,
2013-09-07 05:44:00,52.9,52.6,30.05,East,101,0.0,0.0,99,0.00,,,0.00,WUHU216DAVISVP2,2013-09-07 12:44:00,
2013-09-07 05:45:00,52.9,52.6,30.05,East,101,0.0,0.0,99,0.00,,,0.00,WUHU216DAVISVP2,2013-09-07 12:45:00,
2013-09-07 05:46:00,52.9,52.6,30.06,East,101,0.0,0.0,99,0.00,,,0.00,WUHU216DAVISVP2,2013-09-07 12:46:00,
2013-09-07 05:48:00,53.0,52.7,30.05,East,101,0.0,0.0,99,0.00,,,0.00,WUHU216DAVISVP2,2013-09-07 12:48:00,
2013-09-07 05:50:00,53.0,52.7,30.06,East,101,0.0,0.0,99,0.00,,,0.00,WUHU216DAVISVP2,2013-09-07 12:50:00,
2013-09-07 05:51:00,53.1,52.8,30.06,East,101,1.0,1.0,99,0.00,,,0.00,WUHU216DAVISVP2,2013-09-07 12:51:00,
2013-09-07 05:52:00,53.1,52.8,30.05,East,101,0.0,1.0,99,0.00,,,0.00,WUHU216DAVISVP2,2013-09-07 12:52:00,
2013-09-07 05:53:00,53.2,52.9,30.05,East,101,0.0,1.0,99,0.00,,,0.00,WUHU216DAVISVP2,2013-09-07 12:53:00,
2013-09-07 05:55:00,53.3,53.0,30.05,East,101,0.0,1.0,99,0.00,,,0.00,WUHU216DAVISVP2,2013-09-07 12:55:00,
2013-09-07 05:56:00,53.2,52.9,30.05,East,101,0.0,1.0,99,0.00,,,0.00,WUHU216DAVISVP2,2013-09-07 12:56:00,
2013-09-07 05:57:00,53.3,53.0,30.05,East,101,0.0,1.0,99,0.00,,,0.00,WUHU216DAVISVP2,2013-09-07 12:57:00,
2013-09-07 05:59:00,53.2,52.9,30.05,East,101,0.0,1.0,99,0.00,,,0.00,WUHU216DAVISVP2,2013-09-07 12:59:00,
2013-09-07 06:00:00,53.2,52.9,30.05,East,101,0.0,1.0,99,0.00,,,0.00,WUHU216DAVISVP2,2013-09-07 13:00:00,
2013-09-07 06:01:00,53.2,52.9,30.05,East,101,0.0,1.0,99,0.00,,,0.00,WUHU216DAVISVP2,2013-09-07 13:01:00,
2013-09-07 06:02:00,53.2,52.9,30.05,East,101,0.0,1.0,99,0.00,,,0.00,WUHU216DAVISVP2,2013-09-07 13:02:00,
2013-09-07 06:04:00,53.2,52.9,30.05,East,101,0.0,1.0,99,0.00,,,0.00,WUHU216DAVISVP2,2013-09-07 13:04:00,
2013-09-07 06:05:00,53.2,52.9,30.05,East,101,0.0,1.0,99,0.00,,,0.00,WUHU216DAVISVP2,2013-09-07 13:05:00,
2013-09-07 06:07:00,53.2,52.9,30.05,East,101,0.0,1.0,99,0.00,,,0.00,WUHU216DAVISVP2,2013-09-07 13:07:00,
2013-09-07 06:09:00,53.2,52.9,30.05,East,101,0.0,1.0,99,0.00,,,0.00,WUHU216DAVISVP2,2013-09-07 13:09:00,
2013-09-07 06:10:00,53.3,53.0,30.05,East,101,0.0,0.0,99,0.00,,,0.00,WUHU216DAVISVP2,2013-09-07 13:10:00,
2013-09-07 06:12:00,53.3,53.0,30.05,East,101,0.0,0.0,99,0.00,,,0.00,WUHU216DAVISVP2,2013-09-07 13:12:00,
2013-09-07 06:14:00,53.4,53.1,30.05,NE,55,0.0,1.0,99,0.00,,,0.00,WUHU216DAVISVP2,2013-09-07 13:14:00,
2013-09-07 06:15:00,53.5,53.2,30.05,NE,55,0.0,1.0,99,0.00,,,0.00,WUHU216DAVISVP2,2013-09-07 13:15:00,
2013-09-07 06:17:00,53.5,53.2,30.05,NE,55,0.0,1.0,99,0.00,,,0.00,WUHU216DAVISVP2,2013-09-07 13:17:00,
2013-09-07 06:18:00,53.5,53.2,30.05,NE,55,0.0,1.0,99,0.00,,,0.00,WUHU216DAVISVP2,2013-09-07 13:18:00,
2013-09-07 06:19:00,53.5,53.2,30.05,NE,55,0.0,1.0,99,0.00,,,0.00,WUHU216DAVISVP2,2013-09-07 13:19:00,
2013-09-07 06:21:00,53.5,53.2,30.05,NE,54,0.0,1.0,99,0.00,,,0.00,WUHU216DAVISVP2,2013-09-07 13:21:00,
2013-09-07 06:22:00,53.5,53.2,30.05,NE,54,0.0,1.0,99,0.00,,,0.00,WUHU216DAVISVP2,2013-09-07 13:22:00,
2013-09-07 06:23:00,53.5,53.2,30.05,NE,55,0.0,1.0,99,0.00,,,0.00,WUHU216DAVISVP2,2013-09-07 13:23:00,
2013-09-07 06:24:00,53.4,53.1,30.05,NE,54,0.0,1.0,99,0.00,,,0.00,WUHU216DAVISVP2,2013-09-07 13:24:00,
2013-09-07 06:25:00,53.4,53.1,30.05,NE,54,0.0,1.0,99,0.00,,,0.00,WUHU216DAVISVP2,2013-09-07 13:25:00,
2013-09-07 06:26:00,53.4,53.1,30.05,NE,55,0.0,1.0,99,0.00,,,0.00,WUHU216DAVISVP2,2013-09-07 13:26:00,
2013-09-07 06:27:00,53.4,53.1,30.05,NE,54,0.0,1.0,99,0.00,,,0.00,WUHU216DAVISVP2,2013-09-07 13:27:00,
2013-09-07 06:28:00,53.4,53.1,30.05,NE,54,0.0,1.0,99,0.00,,,0.00,WUHU216DAVISVP2,2013-09-07 13:28:00,
2013-09-07 06:29:00,53.4,53.1,30.05,NE,54,0.0,1.0,99,0.00,,,0.00,WUHU216DAVISVP2,2013-09-07 13:29:00,
2013-09-07 06:30:00,53.3,53.0,30.05,NE,54,0.0,1.0,99,0.00,,,0.00,WUHU216DAVISVP2,2013-09-07 13:30:00,
2013-09-07 06:31:00,53.3,53.0,30.05,NE,54,0.0,1.0,99,0.00,,,0.00,WUHU216DAVISVP2,2013-09-07 13:31:00,
2013-09-07 06:32:00,53.3,53.0,30.05,NE,54,0.0,1.0,99,0.00,,,0.00,WUHU216DAVISVP2,2013-09-07 13:32:00,
2013-09-07 06:33:00,53.4,53.1,30.05,NE,51,0.0,1.0,99,0.00,,,0.00,WUHU216DAVISVP2,2013-09-07 13:33:00,
2013-09-07 06:34:00,53.4,53.1,30.05,NE,49,0.0,1.0,99,0.00,,,0.00,WUHU216DAVISVP2,2013-09-07 13:34:00,
2013-09-07 06:35:00,53.4,53.1,30.05,NE,37,0.0,1.0,99,0.00,,,0.00,WUHU216DAVISVP2,2013-09-07 13:35:00,
2013-09-07 06:36:00,53.5,53.2,30.05,NE,51,0.0,1.0,99,0.00,,,0.00,WUHU216DAVISVP2,2013-09-07 13:36:00,
2013-09-07 06:37:00,53.6,53.3,30.05,NE,51,0.0,1.0,99,0.00,,,0.00,WUHU216DAVISVP2,2013-09-07 13:37:00,
2013-09-07 06:38:00,53.6,53.3,30.05,NE,51,0.0,1.0,99,0.00,,,0.00,WUHU216DAVISVP2,2013-09-07 13:38:00,
2013-09-07 06:39:00,53.6,53.3,30.05,NE,51,0.0,1.0,99,0.00,,,0.00,WUHU216DAVISVP2,2013-09-07 13:39:00,
2013-09-07 06:40:00,53.6,53.3,30.05,NE,51,0.0,1.0,99,0.00,,,0.00,WUHU216DAVISVP2,2013-09-07 13:40:00,
2013-09-07 06:41:00,53.6,53.3,30.05,NE,51,0.0,1.0,99,0.00,,,0.00,WUHU216DAVISVP2,2013-09-07 13:41:00,
2013-09-07 06:42:00,53.7,53.4,30.05,NE,51,0.0,1.0,99,0.00,,,0.00,WUHU216DAVISVP2,2013-09-07 13:42:00,
2013-09-07 06:44:00,53.8,53.5,30.05,NE,51,0.0,1.0,99,0.00,,,0.00,WUHU216DAVISVP2,2013-09-07 13:44:00,
2013-09-07 06:45:00,53.8,53.5,30.05,NE,51,0.0,1.0,99,0.00,,,0.00,WUHU216DAVISVP2,2013-09-07 13:45:00,
2013-09-07 06:46:00,53.8,53.5,30.05,NE,51,0.0,1.0,99,0.00,,,0.00,WUHU216DAVISVP2,2013-09-07 13:46:00,
2013-09-07 06:47:00,53.8,53.5,30.05,NE,51,0.0,1.0,99,0.00,,,0.00,WUHU216DAVISVP2,2013-09-07 13:47:00,
2013-09-07 06:49:00,53.7,53.4,30.05,NE,51,0.0,1.0,99,0.00,,,0.00,WUHU216DAVISVP2,2013-09-07 13:49:00,
2013-09-07 06:50:00,53.7,53.4,30.05,NE,52,0.0,1.0,99,0.00,,,0.00,WUHU216DAVISVP2,2013-09-07 13:50:00,
2013-09-07 06:51:00,53.8,53.5,30.05,NE,52,0.0,1.0,99,0.00,,,0.00,WUHU216DAVISVP2,2013-09-07 13:51:00,
2013-09-07 06:52:00,53.8,53.5,30.05,NE,52,0.0,1.0,99,0.00,,,0.00,WUHU216DAVISVP2,2013-09-07 13:52:00,
2013-09-07 06:55:00,53.7,53.4,30.05,NE,52,0.0,1.0,99,0.00,,,0.00,WUHU216DAVISVP2,2013-09-07 13:55:00,
2013-09-07 06:56:00,53.6,53.3,30.05,ENE,72,0.0,1.0,99,0.00,,,0.00,WUHU216DAVISVP2,2013-09-07 13:56:00,
2013-09-07 06:57:00,53.7,53.4,30.05,NE,49,0.0,1.0,99,0.00,,,0.00,WUHU216DAVISVP2,2013-09-07 13:57:00,
2013-09-07 06:58:00,53.7,53.4,30.05,NE,49,0.0,1.0,99,0.00,,,0.00,WUHU216DAVISVP2,2013-09-07 13:58:00,
2013-09-07 07:00:00,53.7,53.4,30.05,ENE,75,0.0,1.0,99,0.00,,,0.00,WUHU216DAVISVP2,2013-09-07 14:00:00,
2013-09-07 07:01:00,53.7,53.4,30.06,ENE,75,0.0,1.0,99,0.00,,,0.00,WUHU216DAVISVP2,2013-09-07 14:01:00,
2013-09-07 07:02:00,53.7,53.4,30.06,ENE,75,0.0,1.0,99,0.00,,,0.00,WUHU216DAVISVP2,2013-09-07 14:02:00,
2013-09-07 07:03:00,53.7,53.4,30.06,ENE,75,0.0,1.0,99,0.00,,,0.00,WUHU216DAVISVP2,2013-09-07 14:03:00,
2013-09-07 07:05:00,53.6,53.3,30.06,ENE,75,0.0,1.0,99,0.00,,,0.00,WUHU216DAVISVP2,2013-09-07 14:05:00,
2013-09-07 07:06:00,53.6,53.3,30.06,ENE,75,0.0,1.0,99,0.00,,,0.00,WUHU216DAVISVP2,2013-09-07 14:06:00,
2013-09-07 07:07:00,53.5,53.2,30.06,ENE,75,0.0,1.0,99,0.00,,,0.00,WUHU216DAVISVP2,2013-09-07 14:07:00,
2013-09-07 07:08:00,53.5,53.2,30.06,ENE,75,0.0,1.0,99,0.00,,,0.00,WUHU216DAVISVP2,2013-09-07 14:08:00,
2013-09-07 07:11:00,53.4,53.1,30.06,ENE,75,0.0,1.0,99,0.00,,,0.00,WUHU216DAVISVP2,2013-09-07 14:11:00,
2013-09-07 07:12:00,53.4,53.1,30.06,ENE,75,0.0,1.0,99,0.00,,,0.00,WUHU216DAVISVP2,2013-09-07 14:12:00,
2013-09-07 07:13:00,53.3,53.0,30.06,ENE,75,0.0,1.0,99,0.00,,,0.00,WUHU216DAVISVP2,2013-09-07 14:13:00,
2013-09-07 07:16:00,53.2,52.9,30.05,ENE,75,0.0,1.0,99,0.00,,,0.00,WUHU216DAVISVP2,2013-09-07 14:16:00,
2013-09-07 07:17:00,53.2,52.9,30.05,ENE,75,0.0,1.0,99,0.00,,,0.00,WUHU216DAVISVP2,2013-09-07 14:17:00,
2013-09-07 07:18:00,53.1,52.8,30.06,ENE,75,0.0,1.0,99,0.00,,,0.00,WUHU216DAVISVP2,2013-09-07 14:18:00,
2013-09-07 07:19:00,53.1,52.8,30.05,ENE,75,0.0,1.0,99,0.00,,,0.00,WUHU216DAVISVP2,2013-09-07 14:19:00,
2013-09-07 07:21:00,53.1,52.8,30.05,ENE,75,0.0,0.0,99,0.00,,,0.00,WUHU216DAVISVP2,2013-09-07 14:21:00,
2013-09-07 07:22:00,53.1,52.8,30.05,ENE,75,0.0,0.0,99,0.00,,,0.00,WUHU216DAVISVP2,2013-09-07 14:22:00,
2013-09-07 07:24:00,53.1,52.8,30.06,ENE,75,0.0,0.0,99,0.00,,,0.00,WUHU216DAVISVP2,2013-09-07 14:24:00,
2013-09-07 07:25:00,53.2,52.9,30.06,ENE,75,0.0,0.0,99,0.00,,,0.00,WUHU216DAVISVP2,2013-09-07 14:25:00,
2013-09-07 07:26:00,53.2,52.9,30.06,ENE,75,0.0,0.0,99,0.00,,,0.00,WUHU216DAVISVP2,2013-09-07 14:26:00,
2013-09-07 07:27:00,53.2,52.9,30.06,ENE,75,0.0,0.0,99,0.00,,,0.00,WUHU216DAVISVP2,2013-09-07 14:27:00,
2013-09-07 07:29:00,53.2,52.9,30.06,ENE,75,0.0,0.0,99,0.00,,,0.00,WUHU216DAVISVP2,2013-09-07 14:29:00,
2013-09-07 07:31:00,53.2,52.9,30.06,ENE,75,0.0,0.0,99,0.00,,,0.00,WUHU216DAVISVP2,2013-09-07 14:31:00,
2013-09-07 07:32:00,53.2,52.9,30.06,ENE,75,0.0,0.0,99,0.00,,,0.00,WUHU216DAVISVP2,2013-09-07 14:32:00,
2013-09-07 07:34:00,53.2,52.9,30.06,ENE,75,0.0,0.0,99,0.00,,,0.00,WUHU216DAVISVP2,2013-09-07 14:34:00,
2013-09-07 07:35:00,53.2,52.9,30.05,ENE,75,0.0,0.0,99,0.00,,,0.00,WUHU216DAVISVP2,2013-09-07 14:35:00,
2013-09-07 07:36:00,53.3,53.0,30.06,ENE,75,0.0,0.0,99,0.00,,,0.00,WUHU216DAVISVP2,2013-09-07 14:36:00,
2013-09-07 07:37:00,53.3,53.0,30.05,ENE,75,0.0,0.0,99,0.00,,,0.00,WUHU216DAVISVP2,2013-09-07 14:37:00,
2013-09-07 07:38:00,53.3,53.0,30.05,ENE,75,0.0,0.0,99,0.00,,,0.00,WUHU216DAVISVP2,2013-09-07 14:38:00,
2013-09-07 07:39:00,53.4,53.1,30.05,ENE,75,0.0,0.0,99,0.00,,,0.00,WUHU216DAVISVP2,2013-09-07 14:39:00,
2013-09-07 07:40:00,53.4,53.1,30.05,ENE,75,0.0,0.0,99,0.00,,,0.00,WUHU216DAVISVP2,2013-09-07 14:40:00,
2013-09-07 07:41:00,53.5,53.2,30.06,ENE,75,0.0,0.0,99,0.00,,,0.00,WUHU216DAVISVP2,2013-09-07 14:41:00,
2013-09-07 07:42:00,53.5,53.2,30.05,ENE,75,0.0,0.0,99,0.00,,,0.00,WUHU216DAVISVP2,2013-09-07 14:42:00,
2013-09-07 07:43:00,53.5,53.2,30.05,ENE,75,0.0,0.0,99,0.00,,,0.00,WUHU216DAVISVP2,2013-09-07 14:43:00,
2013-09-07 07:44:00,53.5,53.2,30.05,ENE,75,0.0,0.0,99,0.00,,,0.00,WUHU216DAVISVP2,2013-09-07 14:44:00,
2013-09-07 07:46:00,53.5,53.2,30.05,ENE,75,0.0,0.0,99,0.00,,,0.00,WUHU216DAVISVP2,2013-09-07 14:46:00,
2013-09-07 07:47:00,53.6,53.3,30.05,ENE,75,0.0,0.0,99,0.00,,,0.00,WUHU216DAVISVP2,2013-09-07 14:47:00,
2013-09-07 07:48:00,53.7,53.4,30.05,ENE,75,0.0,0.0,99,0.00,,,0.00,WUHU216DAVISVP2,2013-09-07 14:48:00,
2013-09-07 07:49:00,53.7,53.4,30.05,ENE,75,0.0,0.0,99,0.00,,,0.00,WUHU216DAVISVP2,2013-09-07 14:49:00,
2013-09-07 07:51:00,53.7,53.4,30.05,ENE,75,0.0,0.0,99,0.00,,,0.00,WUHU216DAVISVP2,2013-09-07 14:51:00,
2013-09-07 07:52:00,53.8,53.5,30.05,ENE,75,0.0,0.0,99,0.00,,,0.00,WUHU216DAVISVP2,2013-09-07 14:52:00,
2013-09-07 07:54:00,53.9,53.6,30.05,ENE,75,0.0,0.0,99,0.00,,,0.00,WUHU216DAVISVP2,2013-09-07 14:54:00,
2013-09-07 07:55:00,53.9,53.6,30.05,ENE,75,0.0,0.0,99,0.00,,,0.00,WUHU216DAVISVP2,2013-09-07 14:55:00,
2013-09-07 07:56:00,54.1,53.8,30.05,ENE,75,0.0,0.0,99,0.00,,,0.00,WUHU216DAVISVP2,2013-09-07 14:56:00,
2013-09-07 07:57:00,54.1,53.8,30.05,ENE,75,0.0,0.0,99,0.00,,,0.00,WUHU216DAVISVP2,2013-09-07 14:57:00,
2013-09-07 07:58:00,54.1,53.8,30.05,ENE,75,0.0,0.0,99,0.00,,,0.00,WUHU216DAVISVP2,2013-09-07 14:58:00,
2013-09-07 07:59:00,54.2,53.9,30.05,ENE,75,0.0,0.0,99,0.00,,,0.00,WUHU216DAVISVP2,2013-09-07 14:59:00,
2013-09-07 08:00:00,54.3,54.0,30.05,ENE,75,0.0,0.0,99,0.00,,,0.00,WUHU216DAVISVP2,2013-09-07 15:00:00,
2013-09-07 08:02:00,54.5,54.2,30.05,ENE,75,0.0,0.0,99,0.00,,,0.00,WUHU216DAVISVP2,2013-09-07 15:02:00,
2013-09-07 08:03:00,54.6,54.3,30.05,ENE,75,0.0,0.0,99,0.00,,,0.00,WUHU216DAVISVP2,2013-09-07 15:03:00,
2013-09-07 08:04:00,54.7,54.4,30.05,ENE,75,0.0,0.0,99,0.00,,,0.00,WUHU216DAVISVP2,2013-09-07 15:04:00,
2013-09-07 08:05:00,54.8,54.5,30.05,ENE,75,0.0,0.0,99,0.00,,,0.00,WUHU216DAVISVP2,2013-09-07 15:05:00,
2013-09-07 08:07:00,54.9,54.6,30.05,ENE,75,0.0,0.0,99,0.00,,,0.00,WUHU216DAVISVP2,2013-09-07 15:07:00,
2013-09-07 08:09:00,55.0,54.7,30.05,ENE,75,0.0,0.0,99,0.00,,,0.00,WUHU216DAVISVP2,2013-09-07 15:09:00,
2013-09-07 08:10:00,55.1,54.8,30.05,ENE,75,0.0,0.0,99,0.00,,,0.00,WUHU216DAVISVP2,2013-09-07 15:10:00,
2013-09-07 08:12:00,55.2,54.9,30.05,ENE,75,0.0,0.0,99,0.00,,,0.00,WUHU216DAVISVP2,2013-09-07 15:12:00,
2013-09-07 08:13:00,55.3,55.0,30.05,ENE,75,0.0,0.0,99,0.00,,,0.00,WUHU216DAVISVP2,2013-09-07 15:13:00,
2013-09-07 08:14:00,55.3,55.0,30.05,ENE,75,0.0,0.0,99,0.00,,,0.00,WUHU216DAVISVP2,2013-09-07 15:14:00,
2013-09-07 08:15:00,55.3,55.0,30.05,ENE,75,0.0,0.0,99,0.00,,,0.00,WUHU216DAVISVP2,2013-09-07 15:15:00,
2013-09-07 08:18:00,55.4,55.1,30.05,ENE,75,0.0,0.0,99,0.00,,,0.00,WUHU216DAVISVP2,2013-09-07 15:18:00,
2013-09-07 08:19:00,55.5,55.2,30.05,ENE,75,0.0,0.0,99,0.00,,,0.00,WUHU216DAVISVP2,2013-09-07 15:19:00,
2013-09-07 08:20:00,55.5,55.2,30.05,ENE,75,0.0,0.0,99,0.00,,,0.00,WUHU216DAVISVP2,2013-09-07 15:20:00,
2013-09-07 08:23:00,55.6,55.3,30.06,ENE,75,0.0,0.0,99,0.00,,,0.00,WUHU216DAVISVP2,2013-09-07 15:23:00,
2013-09-07 08:24:00,55.7,55.4,30.05,ENE,75,0.0,0.0,99,0.00,,,0.00,WUHU216DAVISVP2,2013-09-07 15:24:00,
2013-09-07 08:25:00,55.7,55.4,30.06,ENE,75,0.0,0.0,99,0.00,,,0.00,WUHU216DAVISVP2,2013-09-07 15:25:00,
2013-09-07 08:28:00,55.9,55.6,30.05,NNE,26,0.0,0.0,99,0.00,,,0.00,WUHU216DAVISVP2,2013-09-07 15:28:00,
2013-09-07 08:29:00,55.9,55.6,30.05,SW,232,0.0,1.0,99,0.00,,,0.00,WUHU216DAVISVP2,2013-09-07 15:29:00,
2013-09-07 08:30:00,56.0,55.7,30.05,West,280,0.0,1.0,99,0.00,,,0.00,WUHU216DAVISVP2,2013-09-07 15:30:00,
2013-09-07 08:32:00,56.1,55.8,30.05,NE,35,0.0,1.0,99,0.00,,,0.00,WUHU216DAVISVP2,2013-09-07 15:32:00,
2013-09-07 08:33:00,56.1,55.8,30.05,NNE,20,0.0,1.0,99,0.00,,,0.00,WUHU216DAVISVP2,2013-09-07 15:33:00,
2013-09-07 08:34:00,56.1,55.8,30.05,NE,41,0.0,1.0,99,0.00,,,0.00,WUHU216DAVISVP2,2013-09-07 15:34:00,
2013-09-07 08:35:00,56.2,55.9,30.05,NE,41,0.0,1.0,99,0.00,,,0.00,WUHU216DAVISVP2,2013-09-07 15:35:00,
2013-09-07 08:36:00,56.3,56.0,30.05,NE,37,0.0,1.0,99,0.00,,,0.00,WUHU216DAVISVP2,2013-09-07 15:36:00,
2013-09-07 08:38:00,56.4,56.1,30.05,NE,41,0.0,1.0,99,0.00,,,0.00,WUHU216DAVISVP2,2013-09-07 15:38:00,
2013-09-07 08:39:00,56.5,56.2,30.05,NE,41,0.0,1.0,99,0.00,,,0.00,WUHU216DAVISVP2,2013-09-07 15:39:00,
2013-09-07 08:41:00,56.6,56.3,30.05,NE,36,0.0,1.0,99,0.00,,,0.00,WUHU216DAVISVP2,2013-09-07 15:41:00,
2013-09-07 08:42:00,56.7,56.4,30.05,NNE,25,0.0,1.0,99,0.00,,,0.00,WUHU216DAVISVP2,2013-09-07 15:42:00,
2013-09-07 08:44:00,56.8,56.5,30.05,NNE,25,0.0,1.0,99,0.00,,,0.00,WUHU216DAVISVP2,2013-09-07 15:44:00,
2013-09-07 08:45:00,56.9,56.6,30.05,NE,41,0.0,1.0,99,0.00,,,0.00,WUHU216DAVISVP2,2013-09-07 15:45:00,
2013-09-07 08:46:00,57.0,56.7,30.05,NE,44,0.0,1.0,99,0.00,,,0.00,WUHU216DAVISVP2,2013-09-07 15:46:00,
2013-09-07 08:49:00,57.2,56.9,30.05,NE,46,1.0,1.0,99,0.00,,,0.00,WUHU216DAVISVP2,2013-09-07 15:49:00,
2013-09-07 08:50:00,57.4,57.1,30.05,NE,39,0.0,2.0,99,0.00,,,0.00,WUHU216DAVISVP2,2013-09-07 15:50:00,
2013-09-07 08:51:00,57.4,57.1,30.05,NE,37,0.0,2.0,99,0.00,,,0.00,WUHU216DAVISVP2,2013-09-07 15:51:00,
2013-09-07 08:54:00,57.5,57.2,30.05,NE,44,0.0,2.0,99,0.00,,,0.00,WUHU216DAVISVP2,2013-09-07 15:54:00,
2013-09-07 08:56:00,57.6,57.3,30.05,NNE,18,0.0,2.0,99,0.00,,,0.00,WUHU216DAVISVP2,2013-09-07 15:56:00,
2013-09-07 08:59:00,57.8,57.5,30.05,East,98,0.0,2.0,99,0.00,,,0.00,WUHU216DAVISVP2,2013-09-07 15:59:00,
2013-09-07 09:00:00,57.9,57.6,30.05,East,98,0.0,2.0,99,0.00,,,0.00,WUHU216DAVISVP2,2013-09-07 16:00:00,
2013-09-07 09:01:00,58.0,57.7,30.05,North,8,0.0,2.0,99,0.00,,,0.00,WUHU216DAVISVP2,2013-09-07 16:01:00,
2013-09-07 09:02:00,58.0,57.7,30.05,North,8,0.0,2.0,99,0.00,,,0.00,WUHU216DAVISVP2,2013-09-07 16:02:00,
2013-09-07 09:04:00,58.2,57.9,30.05,NNE,15,0.0,2.0,99,0.00,,,0.00,WUHU216DAVISVP2,2013-09-07 16:04:00,
2013-09-07 09:05:00,58.2,57.9,30.05,NNE,16,0.0,2.0,99,0.00,,,0.00,WUHU216DAVISVP2,2013-09-07 16:05:00,
2013-09-07 09:06:00,58.3,58.0,30.05,NNE,17,0.0,2.0,99,0.00,,,0.00,WUHU216DAVISVP2,2013-09-07 16:06:00,
2013-09-07 09:07:00,58.4,58.1,30.05,NNE,17,0.0,2.0,99,0.00,,,0.00,WUHU216DAVISVP2,2013-09-07 16:07:00,
2013-09-07 09:08:00,58.5,58.2,30.05,ENE,57,0.0,1.0,99,0.00,,,0.00,WUHU216DAVISVP2,2013-09-07 16:08:00,
2013-09-07 09:09:00,58.7,58.4,30.05,NE,37,0.0,1.0,99,0.00,,,0.00,WUHU216DAVISVP2,2013-09-07 16:09:00,
2013-09-07 09:10:00,58.8,58.2,30.05,NE,47,2.0,2.0,98,0.00,,,0.00,WUHU216DAVISVP2,2013-09-07 16:10:00,
2013-09-07 09:12:00,59.1,57.9,30.05,West,264,0.0,2.0,96,0.00,,,0.00,WUHU216DAVISVP2,2013-09-07 16:12:00,
2013-09-07 09:14:00,59.4,57.9,30.05,ENE,58,0.0,2.0,95,0.00,,,0.00,WUHU216DAVISVP2,2013-09-07 16:14:00,
2013-09-07 09:15:00,59.6,58.1,30.05,ENE,68,0.0,2.0,95,0.00,,,0.00,WUHU216DAVISVP2,2013-09-07 16:15:00,
2013-09-07 09:16:00,59.8,58.0,30.05,ENE,75,0.0,2.0,94,0.00,,,0.00,WUHU216DAVISVP2,2013-09-07 16:16:00,
2013-09-07 09:17:00,60.0,58.5,30.05,ENE,75,0.0,2.0,95,0.00,,,0.00,WUHU216DAVISVP2,2013-09-07 16:17:00,
2013-09-07 09:20:00,60.5,58.7,30.05,NE,47,0.0,2.0,94,0.00,,,0.00,WUHU216DAVISVP2,2013-09-07 16:20:00,
2013-09-07 09:22:00,60.9,58.5,30.05,NE,42,0.0,2.0,92,0.00,,,0.00,WUHU216DAVISVP2,2013-09-07 16:22:00,
2013-09-07 09:23:00,61.0,58.9,30.05,WNW,299,0.0,2.0,93,0.00,,,0.00,WUHU216DAVISVP2,2013-09-07 16:23:00,
2013-09-07 09:25:00,61.2,58.5,30.05,SE,124,0.0,2.0,91,0.00,,,0.00,WUHU216DAVISVP2,2013-09-07 16:25:00,
2013-09-07 09:27:00,61.6,59.2,30.05,ENE,61,0.0,2.0,92,0.00,,,0.00,WUHU216DAVISVP2,2013-09-07 16:27:00,
2013-09-07 09:28:00,61.9,58.9,30.05,NE,48,0.0,2.0,90,0.00,,,0.00,WUHU216DAVISVP2,2013-09-07 16:28:00,
2013-09-07 09:30:00,62.2,58.9,30.05,East,94,0.0,2.0,89,0.00,,,0.00,WUHU216DAVISVP2,2013-09-07 16:30:00,
2013-09-07 09:32:00,62.5,59.2,30.05,NE,34,1.0,2.0,89,0.00,,,0.00,WUHU216DAVISVP2,2013-09-07 16:32:00,
2013-09-07 09:33:00,62.6,59.3,30.05,ENE,77,1.0,2.0,89,0.00,,,0.00,WUHU216DAVISVP2,2013-09-07 16:33:00,
2013-09-07 09:34:00,62.6,58.7,30.05,SE,146,0.0,2.0,87,0.00,,,0.00,WUHU216DAVISVP2,2013-09-07 16:34:00,
2013-09-07 09:35:00,62.8,59.2,30.05,South,186,0.0,2.0,88,0.00,,,0.00,WUHU216DAVISVP2,2013-09-07 16:35:00,
2013-09-07 09:37:00,63.0,59.4,30.05,ESE,105,1.0,3.0,88,0.00,,,0.00,WUHU216DAVISVP2,2013-09-07 16:37:00,
2013-09-07 09:39:00,63.2,59.6,30.05,NE,44,0.0,3.0,88,0.00,,,0.00,WUHU216DAVISVP2,2013-09-07 16:39:00,
2013-09-07 09:40:00,63.3,59.7,30.05,SE,140,0.0,3.0,88,0.00,,,0.00,WUHU216DAVISVP2,2013-09-07 16:40:00,
2013-09-07 09:41:00,63.4,59.5,30.05,WSW,240,0.0,3.0,87,0.00,,,0.00,WUHU216DAVISVP2,2013-09-07 16:41:00,
2013-09-07 09:42:00,63.6,59.7,30.04,SSE,160,1.0,3.0,87,0.00,,,0.00,WUHU216DAVISVP2,2013-09-07 16:42:00,
2013-09-07 09:44:00,63.8,59.5,30.05,ESE,116,2.0,3.0,86,0.00,,,0.00,WUHU216DAVISVP2,2013-09-07 16:44:00,
2013-09-07 09:45:00,63.9,59.3,30.05,SE,124,1.0,4.0,85,0.00,,,0.00,WUHU216DAVISVP2,2013-09-07 16:45:00,
2013-09-07 09:46:00,63.9,59.0,30.05,East,84,1.0,4.0,84,0.00,,,0.00,WUHU216DAVISVP2,2013-09-07 16:46:00,
2013-09-07 09:47:00,64.0,59.4,30.05,SE,141,0.0,4.0,85,0.00,,,0.00,WUHU216DAVISVP2,2013-09-07 16:47:00,
2013-09-07 09:49:00,64.0,59.4,30.05,North,353,0.0,4.0,85,0.00,,,0.00,WUHU216DAVISVP2,2013-09-07 16:49:00,
2013-09-07 09:50:00,64.0,59.1,30.04,NNE,13,0.0,4.0,84,0.00,,,0.00,WUHU216DAVISVP2,2013-09-07 16:50:00,
2013-09-07 09:51:00,63.9,59.0,30.04,SE,126,0.0,4.0,84,0.00,,,0.00,WUHU216DAVISVP2,2013-09-07 16:51:00,
2013-09-07 09:52:00,64.0,59.4,30.05,SW,232,0.0,4.0,85,0.00,,,0.00,WUHU216DAVISVP2,2013-09-07 16:52:00,
2013-09-07 09:54:00,64.3,59.4,30.05,SE,125,0.0,4.0,84,0.00,,,0.00,WUHU216DAVISVP2,2013-09-07 16:54:00,
2013-09-07 09:55:00,64.3,59.4,30.04,SE,125,0.0,4.0,84,0.00,,,0.00,WUHU216DAVISVP2,2013-09-07 16:55:00,
2013-09-07 09:56:00,64.4,59.5,30.04,ESE,111,0.0,4.0,84,0.00,,,0.00,WUHU216DAVISVP2,2013-09-07 16:56:00,
2013-09-07 09:57:00,64.6,59.4,30.04,SSE,152,0.0,4.0,83,0.00,,,0.00,WUHU216DAVISVP2,2013-09-07 16:57:00,
2013-09-07 10:00:00,64.8,59.6,30.04,South,190,1.0,4.0,83,0.00,,,0.00,WUHU216DAVISVP2,2013-09-07 17:00:00,
2013-09-07 10:01:00,64.9,59.6,30.05,South,190,0.0,4.0,83,0.00,,,0.00,WUHU216DAVISVP2,2013-09-07 17:01:00,
2013-09-07 10:03:00,65.2,59.6,30.04,West,260,0.0,4.0,82,0.00,,,0.00,WUHU216DAVISVP2,2013-09-07 17:03:00,
2013-09-07 10:05:00,65.4,59.8,30.04,North,349,0.0,3.0,82,0.00,,,0.00,WUHU216DAVISVP2,2013-09-07 17:05:00,
2013-09-07 10:06:00,65.4,59.8,30.04,WNW,296,0.0,3.0,82,0.00,,,0.00,WUHU216DAVISVP2,2013-09-07 17:06:00,
2013-09-07 10:07:00,65.4,59.8,30.04,ENE,63,0.0,3.0,82,0.00,,,0.00,WUHU216DAVISVP2,2013-09-07 17:07:00,
2013-09-07 10:08:00,65.4,59.8,30.04,ENE,63,0.0,3.0,82,0.00,,,0.00,WUHU216DAVISVP2,2013-09-07 17:08:00,
2013-09-07 10:11:00,65.7,60.1,30.05,East,84,0.0,2.0,82,0.00,,,0.00,WUHU216DAVISVP2,2013-09-07 17:11:00,
2013-09-07 10:13:00,65.9,60.3,30.04,ESE,109,0.0,2.0,82,0.00,,,0.00,WUHU216DAVISVP2,2013-09-07 17:13:00,
2013-09-07 10:16:00,66.0,60.1,30.04,ENE,77,0.0,2.0,81,0.00,,,0.00,WUHU216DAVISVP2,2013-09-07 17:16:00,
2013-09-07 10:18:00,66.2,60.3,30.04,NE,53,0.0,2.0,81,0.00,,,0.00,WUHU216DAVISVP2,2013-09-07 17:18:00,
2013-09-07 10:19:00,66.2,60.3,30.04,ENE,78,0.0,2.0,81,0.00,,,0.00,WUHU216DAVISVP2,2013-09-07 17:19:00,
2013-09-07 10:21:00,66.3,60.4,30.04,SE,131,0.0,2.0,81,0.00,,,0.00,WUHU216DAVISVP2,2013-09-07 17:21:00,
2013-09-07 10:23:00,66.5,60.2,30.04,West,274,0.0,2.0,80,0.00,,,0.00,WUHU216DAVISVP2,2013-09-07 17:23:00,
2013-09-07 10:24:00,66.5,60.2,30.04,West,274,0.0,2.0,80,0.00,,,0.00,WUHU216DAVISVP2,2013-09-07 17:24:00,
2013-09-07 10:26:00,66.7,60.1,30.04,East,82,0.0,2.0,79,0.00,,,0.00,WUHU216DAVISVP2,2013-09-07 17:26:00,
2013-09-07 10:28:00,66.9,60.6,30.04,SSW,212,0.0,2.0,80,0.00,,,0.00,WUHU216DAVISVP2,2013-09-07 17:28:00,
2013-09-07 10:29:00,67.0,60.3,30.04,SSW,213,0.0,2.0,79,0.00,,,0.00,WUHU216DAVISVP2,2013-09-07 17:29:00,
2013-09-07 10:30:00,67.1,60.5,30.04,SSW,213,0.0,2.0,79,0.00,,,0.00,WUHU216DAVISVP2,2013-09-07 17:30:00,
2013-09-07 10:31:00,67.2,60.1,30.04,NE,34,0.0,3.0,78,0.00,,,0.00,WUHU216DAVISVP2,2013-09-07 17:31:00,
2013-09-07 10:33:00,67.1,60.4,30.04,SSW,207,0.0,3.0,79,0.00,,,0.00,WUHU216DAVISVP2,2013-09-07 17:33:00,
2013-09-07 10:34:00,67.2,60.9,30.04,SSW,207,0.0,3.0,80,0.00,,,0.00,WUHU216DAVISVP2,2013-09-07 17:34:00,
2013-09-07 10:35:00,67.2,60.9,30.04,SSW,207,0.0,3.0,80,0.00,,,0.00,WUHU216DAVISVP2,2013-09-07 17:35:00,
2013-09-07 10:36:00,67.3,60.3,30.04,SE,145,0.0,3.0,78,0.00,,,0.00,WUHU216DAVISVP2,2013-09-07 17:36:00,
2013-09-07 10:38:00,67.7,60.3,30.04,SSE,150,0.0,3.0,77,0.00,,,0.00,WUHU216DAVISVP2,2013-09-07 17:38:00,
2013-09-07 10:40:00,67.9,60.9,30.04,WNW,298,0.0,3.0,78,0.00,,,0.00,WUHU216DAVISVP2,2013-09-07 17:40:00,
2013-09-07 10:41:00,68.0,60.6,30.04,NNE,14,1.0,3.0,77,0.00,,,0.00,WUHU216DAVISVP2,2013-09-07 17:41:00,
2013-09-07 10:42:00,68.0,60.6,30.04,ENE,63,2.0,3.0,77,0.00,,,0.00,WUHU216DAVISVP2,2013-09-07 17:42:00,
2013-09-07 10:44:00,67.8,60.1,30.04,North,350,0.0,3.0,76,0.00,,,0.00,WUHU216DAVISVP2,2013-09-07 17:44:00,
2013-09-07 10:45:00,67.7,60.3,30.04,WNW,302,0.0,3.0,77,0.00,,,0.00,WUHU216DAVISVP2,2013-09-07 17:45:00,
2013-09-07 10:46:00,67.6,59.9,30.04,ESE,115,2.0,3.0,76,0.00,,,0.00,WUHU216DAVISVP2,2013-09-07 17:46:00,
2013-09-07 10:47:00,67.6,59.9,30.04,SE,134,0.0,3.0,76,0.00,,,0.00,WUHU216DAVISVP2,2013-09-07 17:47:00,
2013-09-07 10:48:00,67.5,60.1,30.04,West,271,0.0,3.0,77,0.00,,,0.00,WUHU216DAVISVP2,2013-09-07 17:48:00,
2013-09-07 10:49:00,67.5,60.1,30.04,NNE,22,0.0,3.0,77,0.00,,,0.00,WUHU216DAVISVP2,2013-09-07 17:49:00,
2013-09-07 10:51:00,67.5,60.1,30.04,SE,139,1.0,2.0,77,0.00,,,0.00,WUHU216DAVISVP2,2013-09-07 17:51:00,
2013-09-07 10:52:00,67.5,60.1,30.04,SE,128,1.0,2.0,77,0.00,,,0.00,WUHU216DAVISVP2,2013-09-07 17:52:00,
2013-09-07 10:53:00,67.5,59.8,30.04,ESE,111,0.0,2.0,76,0.00,,,0.00,WUHU216DAVISVP2,2013-09-07 17:53:00,
2013-09-07 10:54:00,67.6,60.2,30.04,SE,135,0.0,2.0,77,0.00,,,0.00,WUHU216DAVISVP2,2013-09-07 17:54:00,
2013-09-07 10:56:00,67.7,60.3,30.04,SE,135,0.0,2.0,77,0.00,,,0.00,WUHU216DAVISVP2,2013-09-07 17:56:00,
2013-09-07 10:57:00,67.8,60.3,30.04,SE,143,0.0,2.0,77,0.00,,,0.00,WUHU216DAVISVP2,2013-09-07 17:57:00,
2013-09-07 10:58:00,68.0,60.5,30.04,ESE,113,0.0,2.0,77,0.00,,,0.00,WUHU216DAVISVP2,2013-09-07 17:58:00,
2013-09-07 10:59:00,68.3,60.4,30.03,SSE,150,2.0,2.0,76,0.00,,,0.00,WUHU216DAVISVP2,2013-09-07 17:59:00,
2013-09-07 11:01:00,68.4,60.2,30.04,NE,42,1.0,2.0,75,0.00,,,0.00,WUHU216DAVISVP2,2013-09-07 18:01:00,
2013-09-07 11:02:00,68.4,60.5,30.04,NE,38,1.0,2.0,76,0.00,,,0.00,WUHU216DAVISVP2,2013-09-07 18:02:00,
2013-09-07 11:04:00,68.6,60.5,30.03,East,93,0.0,2.0,75,0.00,,,0.00,WUHU216DAVISVP2,2013-09-07 18:04:00,
2013-09-07 11:07:00,69.1,60.6,30.03,North,8,0.0,2.0,74,0.00,,,0.00,WUHU216DAVISVP2,2013-09-07 18:07:00,
2013-09-07 11:08:00,69.3,60.4,30.03,NNE,20,1.0,2.0,73,0.00,,,0.00,WUHU216DAVISVP2,2013-09-07 18:08:00,
2013-09-07 11:09:00,69.4,60.5,30.03,NNE,32,1.0,4.0,73,0.00,,,0.00,WUHU216DAVISVP2,2013-09-07 18:09:00,
2013-09-07 11:12:00,69.3,60.0,30.03,East,93,0.0,4.0,72,0.00,,,0.00,WUHU216DAVISVP2,2013-09-07 18:12:00,
2013-09-07 11:13:00,69.1,60.2,30.03,East,89,0.0,4.0,73,0.00,,,0.00,WUHU216DAVISVP2,2013-09-07 18:13:00,
2013-09-07 11:14:00,69.1,60.2,30.03,NNE,31,1.0,4.0,73,0.00,,,0.00,WUHU216DAVISVP2,2013-09-07 18:14:00,
2013-09-07 11:15:00,69.1,60.1,30.03,NNE,31,1.0,4.0,73,0.00,,,0.00,WUHU216DAVISVP2,2013-09-07 18:15:00,
2013-09-07 11:17:00,69.2,60.6,30.03,East,82,0.0,4.0,74,0.00,,,0.00,WUHU216DAVISVP2,2013-09-07 18:17:00,
2013-09-07 11:19:00,69.1,60.1,30.03,East,101,0.0,4.0,73,0.00,,,0.00,WUHU216DAVISVP2,2013-09-07 18:19:00,
2013-09-07 11:20:00,69.0,60.5,30.03,East,85,0.0,4.0,74,0.00,,,0.00,WUHU216DAVISVP2,2013-09-07 18:20:00,
2013-09-07 11:22:00,69.1,61.0,30.03,WSW,245,0.0,4.0,75,0.00,,,0.00,WUHU216DAVISVP2,2013-09-07 18:22:00,
2013-09-07 11:23:00,69.2,60.7,30.03,NW,316,0.0,4.0,74,0.00,,,0.00,WUHU216DAVISVP2,2013-09-07 18:23:00,
2013-09-07 11:24:00,69.4,60.9,30.03,North,10,0.0,4.0,74,0.00,,,0.00,WUHU216DAVISVP2,2013-09-07 18:24:00,
2013-09-07 11:25:00,69.4,60.9,30.03,WNW,293,0.0,4.0,74,0.00,,,0.00,WUHU216DAVISVP2,2013-09-07 18:25:00,
2013-09-07 11:27:00,69.8,60.9,30.03,SE,142,0.0,4.0,73,0.00,,,0.00,WUHU216DAVISVP2,2013-09-07 18:27:00,
2013-09-07 11:28:00,69.9,60.2,30.03,East,79,0.0,3.0,71,0.00,,,0.00,WUHU216DAVISVP2,2013-09-07 18:28:00,
2013-09-07 11:29:00,69.9,60.6,30.03,SE,143,0.0,3.0,72,0.00,,,0.00,WUHU216DAVISVP2,2013-09-07 18:29:00,
2013-09-07 11:30:00,70.0,60.3,30.03,SSE,166,0.0,3.0,71,0.00,,,0.00,WUHU216DAVISVP2,2013-09-07 18:30:00,
2013-09-07 11:31:00,70.0,60.3,30.03,SSE,159,0.0,3.0,71,0.00,,,0.00,WUHU216DAVISVP2,2013-09-07 18:31:00,
2013-09-07 11:32:00,70.1,60.3,30.03,SSW,202,0.0,3.0,71,0.00,,,0.00,WUHU216DAVISVP2,2013-09-07 18:32:00,
2013-09-07 11:33:00,70.2,60.4,30.03,SW,236,3.0,3.0,71,0.00,,,0.00,WUHU216DAVISVP2,2013-09-07 18:33:00,
2013-09-07 11:35:00,70.1,60.3,30.03,South,179,1.0,4.0,71,0.00,,,0.00,WUHU216DAVISVP2,2013-09-07 18:35:00,
2013-09-07 11:36:00,70.0,60.3,30.03,NE,49,0.0,4.0,71,0.00,,,0.00,WUHU216DAVISVP2,2013-09-07 18:36:00,
2013-09-07 11:37:00,70.0,60.3,30.03,NE,47,0.0,4.0,71,0.00,,,0.00,WUHU216DAVISVP2,2013-09-07 18:37:00,
2013-09-07 11:38:00,70.1,60.8,30.03,WNW,291,0.0,4.0,72,0.00,,,0.00,WUHU216DAVISVP2,2013-09-07 18:38:00,
2013-09-07 11:39:00,70.1,60.8,30.03,WNW,302,2.0,4.0,72,0.00,,,0.00,WUHU216DAVISVP2,2013-09-07 18:39:00,
2013-09-07 11:40:00,70.1,60.4,30.03,West,276,2.0,4.0,71,0.00,,,0.00,WUHU216DAVISVP2,2013-09-07 18:40:00,
2013-09-07 11:42:00,70.1,60.4,30.03,NW,316,2.0,4.0,71,0.00,,,0.00,WUHU216DAVISVP2,2013-09-07 18:42:00,
2013-09-07 11:43:00,70.0,60.3,30.02,NE,38,0.0,4.0,71,0.00,,,0.00,WUHU216DAVISVP2,2013-09-07 18:43:00,
2013-09-07 11:44:00,69.9,60.2,30.03,WNW,297,0.0,4.0,71,0.00,,,0.00,WUHU216DAVISVP2,2013-09-07 18:44:00,
2013-09-07 11:45:00,69.8,60.5,30.02,WNW,293,1.0,4.0,72,0.00,,,0.00,WUHU216DAVISVP2,2013-09-07 18:45:00,
2013-09-07 11:47:00,69.7,60.4,30.02,WSW,255,1.0,4.0,72,0.00,,,0.00,WUHU216DAVISVP2,2013-09-07 18:47:00,
2013-09-07 11:48:00,69.7,60.4,30.02,North,3,0.0,4.0,72,0.00,,,0.00,WUHU216DAVISVP2,2013-09-07 18:48:00,
2013-09-07 11:49:00,69.6,60.3,30.02,SSW,201,0.0,4.0,72,0.00,,,0.00,WUHU216DAVISVP2,2013-09-07 18:49:00,
2013-09-07 11:50:00,69.7,60.0,30.02,WNW,298,3.0,4.0,71,0.00,,,0.00,WUHU216DAVISVP2,2013-09-07 18:50:00,
2013-09-07 11:52:00,69.6,60.3,30.02,SW,226,1.0,4.0,72,0.00,,,0.00,WUHU216DAVISVP2,2013-09-07 18:52:00,
2013-09-07 11:53:00,69.6,59.8,30.02,WNW,282,1.0,4.0,71,0.00,,,0.00,WUHU216DAVISVP2,2013-09-07 18:53:00,
2013-09-07 11:54:00,69.7,60.3,30.02,SW,228,0.0,4.0,72,0.00,,,0.00,WUHU216DAVISVP2,2013-09-07 18:54:00,
2013-09-07 11:55:00,69.7,59.9,30.02,WSW,257,0.0,4.0,71,0.00,,,0.00,WUHU216DAVISVP2,2013-09-07 18:55:00,
2013-09-07 11:57:00,69.7,60.7,30.02,NNW,338,0.0,4.0,73,0.00,,,0.00,WUHU216DAVISVP2,2013-09-07 18:57:00,
2013-09-07 11:58:00,69.7,59.5,30.02,NW,312,1.0,5.0,70,0.00,,,0.00,WUHU216DAVISVP2,2013-09-07 18:58:00,
2013-09-07 11:59:00,69.6,60.3,30.02,NE,51,0.0,5.0,72,0.00,,,0.00,WUHU216DAVISVP2,2013-09-07 18:59:00,
2013-09-07 12:00:00,69.5,60.2,30.03,West,279,2.0,5.0,72,0.00,,,0.00,WUHU216DAVISVP2,2013-09-07 19:00:00,
2013-09-07 12:01:00,69.4,59.8,30.02,NNW,345,0.0,5.0,71,0.00,,,0.00,WUHU216DAVISVP2,2013-09-07 19:01:00,
2013-09-07 12:02:00,69.2,59.9,30.02,NW,319,1.0,5.0,72,0.00,,,0.00,WUHU216DAVISVP2,2013-09-07 19:02:00,
2013-09-07 12:03:00,69.0,59.4,30.02,West,281,0.0,6.0,71,0.00,,,0.00,WUHU216DAVISVP2,2013-09-07 19:03:00,
2013-09-07 12:05:00,69.0,60.1,30.02,WNW,295,0.0,6.0,73,0.00,,,0.00,WUHU216DAVISVP2,2013-09-07 19:05:00,
2013-09-07 12:06:00,69.1,60.2,30.02,WNW,291,1.0,6.0,73,0.00,,,0.00,WUHU216DAVISVP2,2013-09-07 19:06:00,
2013-09-07 12:07:00,69.4,60.5,30.02,WNW,293,0.0,6.0,73,0.00,,,0.00,WUHU216DAVISVP2,2013-09-07 19:07:00,
2013-09-07 12:09:00,69.8,60.5,30.02,West,266,0.0,6.0,72,0.00,,,0.00,WUHU216DAVISVP2,2013-09-07 19:09:00,
2013-09-07 12:10:00,70.1,60.8,30.02,NNW,335,0.0,6.0,72,0.00,,,0.00,WUHU216DAVISVP2,2013-09-07 19:10:00,
2013-09-07 12:11:00,70.1,60.8,30.02,NNW,335,0.0,6.0,72,0.00,,,0.00,WUHU216DAVISVP2,2013-09-07 19:11:00,
2013-09-07 12:12:00,70.0,59.9,30.02,WNW,302,1.0,6.0,70,0.00,,,0.00,WUHU216DAVISVP2,2013-09-07 19:12:00,
2013-09-07 12:13:00,70.0,59.9,30.02,WNW,286,1.0,6.0,70,0.00,,,0.00,WUHU216DAVISVP2,2013-09-07 19:13:00,
2013-09-07 12:14:00,69.7,60.0,30.02,West,259,0.0,6.0,71,0.00,,,0.00,WUHU216DAVISVP2,2013-09-07 19:14:00,
2013-09-07 12:16:00,69.4,60.1,30.02,NNE,16,0.0,6.0,72,0.00,,,0.00,WUHU216DAVISVP2,2013-09-07 19:16:00,
2013-09-07 12:18:00,69.3,60.0,30.02,West,276,1.0,6.0,72,0.00,,,0.00,WUHU216DAVISVP2,2013-09-07 19:18:00,
2013-09-07 12:20:00,69.1,59.9,30.02,West,270,2.0,6.0,72,0.00,,,0.00,WUHU216DAVISVP2,2013-09-07 19:20:00,
2013-09-07 12:21:00,69.0,59.8,30.02,NNW,340,2.0,6.0,72,0.00,,,0.00,WUHU216DAVISVP2,2013-09-07 19:21:00,
2013-09-07 12:22:00,68.8,59.6,30.02,West,266,2.0,7.0,72,0.00,,,0.00,WUHU216DAVISVP2,2013-09-07 19:22:00,
2013-09-07 12:23:00,68.8,59.6,30.02,NW,309,2.0,7.0,72,0.00,,,0.00,WUHU216DAVISVP2,2013-09-07 19:23:00,
2013-09-07 12:24:00,68.6,59.7,30.02,WNW,297,1.0,7.0,73,0.00,,,0.00,WUHU216DAVISVP2,2013-09-07 19:24:00,
2013-09-07 12:25:00,68.7,59.8,30.02,WNW,293,2.0,7.0,73,0.00,,,0.00,WUHU216DAVISVP2,2013-09-07 19:25:00,
2013-09-07 12:26:00,68.7,59.8,30.02,NNW,345,1.0,7.0,73,0.00,,,0.00,WUHU216DAVISVP2,2013-09-07 19:26:00,
2013-09-07 12:27:00,68.7,59.8,30.02,NW,310,3.0,7.0,73,0.00,,,0.00,WUHU216DAVISVP2,2013-09-07 19:27:00,
2013-09-07 12:28:00,68.8,59.9,30.02,West,272,3.0,7.0,73,0.00,,,0.00,WUHU216DAVISVP2,2013-09-07 19:28:00,
2013-09-07 12:29:00,68.8,59.6,30.02,NNW,341,1.0,7.0,72,0.00,,,0.00,WUHU216DAVISVP2,2013-09-07 19:29:00,
2013-09-07 12:30:00,68.7,59.5,30.02,West,273,4.0,7.0,72,0.00,,,0.00,WUHU216DAVISVP2,2013-09-07 19:30:00,
2013-09-07 12:31:00,68.6,59.7,30.02,West,268,2.0,7.0,73,0.00,,,0.00,WUHU216DAVISVP2,2013-09-07 19:31:00,
2013-09-07 12:33:00,68.4,59.6,30.02,West,262,3.0,7.0,73,0.00,,,0.00,WUHU216DAVISVP2,2013-09-07 19:33:00,
2013-09-07 12:34:00,68.4,60.3,30.02,NE,41,1.0,7.0,75,0.00,,,0.00,WUHU216DAVISVP2,2013-09-07 19:34:00,
2013-09-07 12:35:00,68.5,60.4,30.02,NNE,32,0.0,7.0,75,0.00,,,0.00,WUHU216DAVISVP2,2013-09-07 19:35:00,
2013-09-07 12:37:00,68.8,60.3,30.02,WSW,253,0.0,7.0,74,0.00,,,0.00,WUHU216DAVISVP2,2013-09-07 19:37:00,
2013-09-07 12:38:00,68.9,60.8,30.02,WNW,289,2.0,7.0,75,0.00,,,0.00,WUHU216DAVISVP2,2013-09-07 19:38:00,
2013-09-07 12:39:00,69.0,60.5,30.02,WNW,285,1.0,7.0,74,0.00,,,0.00,WUHU216DAVISVP2,2013-09-07 19:39:00,
2013-09-07 12:40:00,69.0,60.1,30.02,NW,318,0.0,6.0,73,0.00,,,0.00,WUHU216DAVISVP2,2013-09-07 19:40:00,
2013-09-07 12:42:00,69.1,60.6,30.02,NNW,342,0.0,6.0,74,0.00,,,0.00,WUHU216DAVISVP2,2013-09-07 19:42:00,
2013-09-07 12:43:00,69.2,60.3,30.01,NNW,329,0.0,6.0,73,0.00,,,0.00,WUHU216DAVISVP2,2013-09-07 19:43:00,
2013-09-07 12:44:00,69.2,59.9,30.01,WSW,243,1.0,6.0,72,0.00,,,0.00,WUHU216DAVISVP2,2013-09-07 19:44:00,
2013-09-07 12:45:00,69.2,59.9,30.01,NNW,337,1.0,6.0,72,0.00,,,0.00,WUHU216DAVISVP2,2013-09-07 19:45:00,
2013-09-07 12:47:00,68.9,59.7,30.01,NW,319,1.0,6.0,72,0.00,,,0.00,WUHU216DAVISVP2,2013-09-07 19:47:00,
2013-09-07 12:48:00,68.8,59.6,30.01,WSW,252,0.0,6.0,72,0.00,,,0.00,WUHU216DAVISVP2,2013-09-07 19:48:00,
2013-09-07 12:49:00,68.9,60.4,30.01,NNW,328,0.0,6.0,74,0.00,,,0.00,WUHU216DAVISVP2,2013-09-07 19:49:00,
2013-09-07 12:50:00,69.0,60.5,30.01,NNW,327,1.0,6.0,74,0.00,,,0.00,WUHU216DAVISVP2,2013-09-07 19:50:00,
2013-09-07 12:51:00,69.0,60.1,30.01,NW,320,0.0,6.0,73,0.00,,,0.00,WUHU216DAVISVP2,2013-09-07 19:51:00,
2013-09-07 12:52:00,69.1,60.6,30.01,WNW,292,2.0,6.0,74,0.00,,,0.00,WUHU216DAVISVP2,2013-09-07 19:52:00,
2013-09-07 12:53:00,69.2,59.8,30.01,North,352,0.0,6.0,72,0.00,,,0.00,WUHU216DAVISVP2,2013-09-07 19:53:00,
2013-09-07 12:54:00,69.3,60.7,30.01,NNE,20,0.0,6.0,74,0.00,,,0.00,WUHU216DAVISVP2,2013-09-07 19:54:00,
2013-09-07 12:55:00,69.4,60.8,30.01,WNW,301,2.0,6.0,74,0.00,,,0.00,WUHU216DAVISVP2,2013-09-07 19:55:00,
2013-09-07 12:56:00,69.5,60.6,30.01,WNW,289,2.0,6.0,73,0.00,,,0.00,WUHU216DAVISVP2,2013-09-07 19:56:00,
2013-09-07 12:57:00,69.5,60.2,30.01,NW,326,2.0,6.0,72,0.00,,,0.00,WUHU216DAVISVP2,2013-09-07 19:57:00,
2013-09-07 12:58:00,69.5,60.2,30.01,NNW,337,2.0,6.0,72,0.00,,,0.00,WUHU216DAVISVP2,2013-09-07 19:58:00,
2013-09-07 13:00:00,69.5,60.6,30.01,East,89,0.0,6.0,73,0.00,,,0.00,WUHU216DAVISVP2,2013-09-07 20:00:00,
2013-09-07 13:02:00,69.7,60.8,30.01,West,274,2.0,6.0,73,0.00,,,0.00,WUHU216DAVISVP2,2013-09-07 20:02:00,
2013-09-07 13:03:00,69.7,60.4,30.01,NW,304,3.0,6.0,72,0.00,,,0.00,WUHU216DAVISVP2,2013-09-07 20:03:00,
2013-09-07 13:05:00,69.7,60.4,30.01,NW,315,1.0,5.0,72,0.00,,,0.00,WUHU216DAVISVP2,2013-09-07 20:05:00,
2013-09-07 13:07:00,69.6,60.3,30.01,NW,317,2.0,5.0,72,0.00,,,0.00,WUHU216DAVISVP2,2013-09-07 20:07:00,
2013-09-07 13:08:00,69.5,60.6,30.01,North,355,0.0,5.0,73,0.00,,,0.00,WUHU216DAVISVP2,2013-09-07 20:08:00,
2013-09-07 13:10:00,69.6,60.7,30.01,North,358,0.0,5.0,73,0.00,,,0.00,WUHU216DAVISVP2,2013-09-07 20:10:00,
2013-09-07 13:12:00,69.9,61.4,30.01,North,2,0.0,5.0,74,0.00,,,0.00,WUHU216DAVISVP2,2013-09-07 20:12:00,
2013-09-07 13:13:00,69.9,61.0,30.01,NNE,12,0.0,5.0,73,0.00,,,0.00,WUHU216DAVISVP2,2013-09-07 20:13:00,
2013-09-07 13:14:00,70.1,60.8,30.01,NNW,346,0.0,5.0,72,0.00,,,0.00,WUHU216DAVISVP2,2013-09-07 20:14:00,
2013-09-07 13:16:00,70.3,61.4,30.01,NNW,334,0.0,4.0,73,0.00,,,0.00,WUHU216DAVISVP2,2013-09-07 20:16:00,
2013-09-07 13:17:00,70.4,61.1,30.01,North,360,0.0,4.0,72,0.00,,,0.00,WUHU216DAVISVP2,2013-09-07 20:17:00,
2013-09-07 13:18:00,70.5,60.8,30.01,NNE,30,0.0,4.0,71,0.00,,,0.00,WUHU216DAVISVP2,2013-09-07 20:18:00,
2013-09-07 13:19:00,70.6,61.3,30.01,WNW,283,1.0,4.0,72,0.00,,,0.00,WUHU216DAVISVP2,2013-09-07 20:19:00,
2013-09-07 13:20:00,70.6,60.9,30.01,NW,315,2.0,4.0,71,0.00,,,0.00,WUHU216DAVISVP2,2013-09-07 20:20:00,
2013-09-07 13:21:00,70.6,61.3,30.01,NW,306,2.0,4.0,72,0.00,,,0.00,WUHU216DAVISVP2,2013-09-07 20:21:00,
2013-09-07 13:22:00,70.6,60.9,30.01,NW,320,0.0,4.0,71,0.00,,,0.00,WUHU216DAVISVP2,2013-09-07 20:22:00,
2013-09-07 13:23:00,70.7,61.8,30.01,NNE,12,0.0,4.0,73,0.00,,,0.00,WUHU216DAVISVP2,2013-09-07 20:23:00,
2013-09-07 13:24:00,70.7,61.4,30.01,North,1,0.0,4.0,72,0.00,,,0.00,WUHU216DAVISVP2,2013-09-07 20:24:00,
2013-09-07 13:25:00,70.7,60.6,30.01,WNW,284,2.0,4.0,70,0.00,,,0.00,WUHU216DAVISVP2,2013-09-07 20:25:00,
2013-09-07 13:26:00,70.6,60.3,30.01,WSW,255,1.0,6.0,70,0.00,,,0.00,WUHU216DAVISVP2,2013-09-07 20:26:00,
2013-09-07 13:28:00,70.5,60.6,30.01,North,350,1.0,6.0,71,0.00,,,0.00,WUHU216DAVISVP2,2013-09-07 20:28:00,
2013-09-07 13:29:00,70.5,61.0,30.01,West,280,3.0,6.0,72,0.00,,,0.00,WUHU216DAVISVP2,2013-09-07 20:29:00,
2013-09-07 13:30:00,70.5,61.0,30.01,NNW,338,0.0,6.0,72,0.00,,,0.00,WUHU216DAVISVP2,2013-09-07 20:30:00,
2013-09-07 13:31:00,70.5,60.8,30.01,West,271,3.0,6.0,71,0.00,,,0.00,WUHU216DAVISVP2,2013-09-07 20:31:00,
2013-09-07 13:33:00,70.4,60.7,30.00,West,269,3.0,6.0,71,0.00,,,0.00,WUHU216DAVISVP2,2013-09-07 20:33:00,
2013-09-07 13:34:00,70.2,60.5,30.01,West,279,1.0,6.0,71,0.00,,,0.00,WUHU216DAVISVP2,2013-09-07 20:34:00,
2013-09-07 13:36:00,70.1,60.4,30.01,WNW,285,5.0,6.0,71,0.00,,,0.00,WUHU216DAVISVP2,2013-09-07 20:36:00,
2013-09-07 13:37:00,70.0,60.3,30.01,WNW,297,3.0,7.0,71,0.00,,,0.00,WUHU216DAVISVP2,2013-09-07 20:37:00,
2013-09-07 13:38:00,70.0,60.7,30.01,WNW,297,4.0,7.0,72,0.00,,,0.00,WUHU216DAVISVP2,2013-09-07 20:38:00,
2013-09-07 13:39:00,70.0,61.1,30.00,ENE,59,0.0,7.0,73,0.00,,,0.00,WUHU216DAVISVP2,2013-09-07 20:39:00,
2013-09-07 13:40:00,70.1,61.2,30.01,NW,315,2.0,7.0,73,0.00,,,0.00,WUHU216DAVISVP2,2013-09-07 20:40:00,
2013-09-07 13:41:00,70.2,60.9,30.01,NW,320,0.0,7.0,72,0.00,,,0.00,WUHU216DAVISVP2,2013-09-07 20:41:00,
2013-09-07 13:42:00,70.5,61.2,30.01,NW,319,0.0,7.0,72,0.00,,,0.00,WUHU216DAVISVP2,2013-09-07 20:42:00,
2013-09-07 13:43:00,70.6,61.3,30.00,NW,321,2.0,7.0,72,0.00,,,0.00,WUHU216DAVISVP2,2013-09-07 20:43:00,
2013-09-07 13:44:00,70.6,61.3,30.00,SSW,205,3.0,7.0,72,0.00,,,0.00,WUHU216DAVISVP2,2013-09-07 20:44:00,
2013-09-07 13:45:00,70.5,61.2,30.01,NNE,29,0.0,7.0,72,0.00,,,0.00,WUHU216DAVISVP2,2013-09-07 20:45:00,
2013-09-07 13:48:00,70.5,61.2,30.01,NNE,24,0.0,7.0,72,0.00,,,0.00,WUHU216DAVISVP2,2013-09-07 20:48:00,
2013-09-07 13:49:00,70.4,61.1,30.01,NNE,18,1.0,7.0,72,0.00,,,0.00,WUHU216DAVISVP2,2013-09-07 20:49:00,
2013-09-07 13:50:00,70.4,61.1,30.01,NNW,331,1.0,7.0,72,0.00,,,0.00,WUHU216DAVISVP2,2013-09-07 20:50:00,
2013-09-07 13:53:00,70.5,61.2,30.01,NNE,30,2.0,7.0,72,0.00,,,0.00,WUHU216DAVISVP2,2013-09-07 20:53:00,
2013-09-07 13:54:00,70.5,61.2,30.01,ENE,73,2.0,7.0,72,0.00,,,0.00,WUHU216DAVISVP2,2013-09-07 20:54:00,
2013-09-07 13:55:00,70.5,60.8,30.01,NNE,27,1.0,6.0,71,0.00,,,0.00,WUHU216DAVISVP2,2013-09-07 20:55:00,
2013-09-07 13:58:00,70.2,60.9,30.01,ENE,72,0.0,5.0,72,0.00,,,0.00,WUHU216DAVISVP2,2013-09-07 20:58:00,
2013-09-07 13:59:00,70.2,60.9,30.00,NNW,340,1.0,5.0,72,0.00,,,0.00,WUHU216DAVISVP2,2013-09-07 20:59:00,
2013-09-07 14:01:00,70.2,60.9,30.00,NNE,31,1.0,5.0,72,0.00,,,0.00,WUHU216DAVISVP2,2013-09-07 21:01:00,
2013-09-07 14:04:00,70.1,60.8,30.01,NNW,330,3.0,5.0,72,0.00,,,0.00,WUHU216DAVISVP2,2013-09-07 21:04:00,
2013-09-07 14:05:00,70.0,61.1,30.00,NW,323,2.0,5.0,73,0.00,,,0.00,WUHU216DAVISVP2,2013-09-07 21:05:00,
2013-09-07 14:06:00,70.0,61.1,30.00,WNW,290,0.0,5.0,73,0.00,,,0.00,WUHU216DAVISVP2,2013-09-07 21:06:00,
2013-09-07 14:09:00,70.1,61.2,30.00,WNW,286,3.0,5.0,73,0.00,,,0.00,WUHU216DAVISVP2,2013-09-07 21:09:00,
2013-09-07 14:10:00,70.1,61.2,30.00,WNW,300,1.0,5.0,73,0.00,,,0.00,WUHU216DAVISVP2,2013-09-07 21:10:00,
2013-09-07 14:11:00,70.1,61.2,30.00,West,278,0.0,5.0,73,0.00,,,0.00,WUHU216DAVISVP2,2013-09-07 21:11:00,
2013-09-07 14:13:00,70.1,61.2,30.00,NNW,338,0.0,5.0,73,0.00,,,0.00,WUHU216DAVISVP2,2013-09-07 21:13:00,
2013-09-07 14:14:00,70.1,61.2,30.00,North,10,0.0,5.0,73,0.00,,,0.00,WUHU216DAVISVP2,2013-09-07 21:14:00,
2013-09-07 14:15:00,70.2,61.3,30.00,SW,231,1.0,5.0,73,0.00,,,0.00,WUHU216DAVISVP2,2013-09-07 21:15:00,
2013-09-07 14:16:00,70.2,61.1,30.00,West,262,2.0,5.0,73,0.00,,,0.00,WUHU216DAVISVP2,2013-09-07 21:16:00,
2013-09-07 14:19:00,70.2,61.3,30.00,North,1,0.0,5.0,73,0.00,,,0.00,WUHU216DAVISVP2,2013-09-07 21:19:00,
2013-09-07 14:20:00,70.2,61.3,30.00,North,356,0.0,5.0,73,0.00,,,0.00,WUHU216DAVISVP2,2013-09-07 21:20:00,
2013-09-07 14:22:00,70.5,61.6,30.00,East,92,3.0,5.0,73,0.00,,,0.00,WUHU216DAVISVP2,2013-09-07 21:22:00,
2013-09-07 14:24:00,70.6,61.7,30.00,NW,311,1.0,5.0,73,0.00,,,0.00,WUHU216DAVISVP2,2013-09-07 21:24:00,
2013-09-07 14:25:00,70.5,61.6,30.00,WNW,290,3.0,6.0,73,0.00,,,0.00,WUHU216DAVISVP2,2013-09-07 21:25:00,
2013-09-07 14:28:00,70.8,61.5,30.00,NNW,346,0.0,6.0,72,0.00,,,0.00,WUHU216DAVISVP2,2013-09-07 21:28:00,
2013-09-07 14:30:00,70.8,61.5,30.00,North,1,1.0,7.0,72,0.00,,,0.00,WUHU216DAVISVP2,2013-09-07 21:30:00,
2013-09-07 14:31:00,70.8,61.5,30.00,North,7,1.0,7.0,72,0.00,,,0.00,WUHU216DAVISVP2,2013-09-07 21:31:00,
2013-09-07 14:34:00,70.7,61.0,30.00,NNW,343,1.0,7.0,71,0.00,,,0.00,WUHU216DAVISVP2,2013-09-07 21:34:00,
2013-09-07 14:35:00,70.6,60.9,30.00,South,169,0.0,7.0,71,0.00,,,0.00,WUHU216DAVISVP2,2013-09-07 21:35:00,
2013-09-07 14:36:00,70.6,61.3,30.00,West,279,0.0,7.0,72,0.00,,,0.00,WUHU216DAVISVP2,2013-09-07 21:36:00,
2013-09-07 14:37:00,70.6,61.3,30.00,SW,236,0.0,7.0,72,0.00,,,0.00,WUHU216DAVISVP2,2013-09-07 21:37:00,
2013-09-07 14:40:00,70.6,61.3,30.00,NNE,24,2.0,7.0,72,0.00,,,0.00,WUHU216DAVISVP2,2013-09-07 21:40:00,
2013-09-07 14:41:00,70.5,61.2,30.00,West,264,0.0,7.0,72,0.00,,,0.00,WUHU216DAVISVP2,2013-09-07 21:41:00,
2013-09-07 14:42:00,70.5,61.2,30.00,West,273,1.0,7.0,72,0.00,,,0.00,WUHU216DAVISVP2,2013-09-07 21:42:00,
2013-09-07 14:45:00,70.3,61.0,30.00,West,278,0.0,7.0,72,0.00,,,0.00,WUHU216DAVISVP2,2013-09-07 21:45:00,
2013-09-07 14:46:00,70.3,61.4,29.99,ESE,117,1.0,7.0,73,0.00,,,0.00,WUHU216DAVISVP2,2013-09-07 21:46:00,
2013-09-07 14:48:00,70.6,61.3,29.99,WSW,241,2.0,7.0,72,0.00,,,0.00,WUHU216DAVISVP2,2013-09-07 21:48:00,
2013-09-07 14:50:00,70.5,60.8,29.99,West,269,1.0,5.0,71,0.00,,,0.00,WUHU216DAVISVP2,2013-09-07 21:50:00,
2013-09-07 14:51:00,70.5,61.2,29.99,West,261,2.0,5.0,72,0.00,,,0.00,WUHU216DAVISVP2,2013-09-07 21:51:00,
2013-09-07 14:52:00,70.4,61.1,29.99,WNW,297,2.0,5.0,72,0.00,,,0.00,WUHU216DAVISVP2,2013-09-07 21:52:00,
2013-09-07 14:54:00,70.3,61.0,29.99,WNW,283,3.0,5.0,72,0.00,,,0.00,WUHU216DAVISVP2,2013-09-07 21:54:00,
2013-09-07 14:55:00,70.3,61.4,29.99,West,277,1.0,5.0,73,0.00,,,0.00,WUHU216DAVISVP2,2013-09-07 21:55:00,
2013-09-07 14:56:00,70.3,61.0,29.99,WNW,297,1.0,5.0,72,0.00,,,0.00,WUHU216DAVISVP2,2013-09-07 21:56:00,
2013-09-07 14:57:00,70.2,60.9,29.99,NW,323,3.0,5.0,72,0.00,,,0.00,WUHU216DAVISVP2,2013-09-07 21:57:00,
2013-09-07 14:59:00,69.9,60.6,29.99,WNW,283,1.0,5.0,72,0.00,,,0.00,WUHU216DAVISVP2,2013-09-07 21:59:00,
2013-09-07 15:00:00,69.8,60.5,29.99,North,4,0.0,5.0,72,0.00,,,0.00,WUHU216DAVISVP2,2013-09-07 22:00:00,
2013-09-07 15:01:00,69.8,60.9,29.99,WSW,249,0.0,5.0,73,0.00,,,0.00,WUHU216DAVISVP2,2013-09-07 22:01:00,
2013-09-07 15:02:00,70.0,61.5,29.99,NNW,345,0.0,5.0,74,0.00,,,0.00,WUHU216DAVISVP2,2013-09-07 22:02:00,
2013-09-07 15:05:00,70.5,61.4,29.99,West,265,2.0,5.0,73,0.00,,,0.00,WUHU216DAVISVP2,2013-09-07 22:05:00,
2013-09-07 15:06:00,70.5,60.8,29.99,West,268,6.0,7.0,71,0.00,,,0.00,WUHU216DAVISVP2,2013-09-07 22:06:00,
2013-09-07 15:07:00,70.3,61.0,29.99,NNE,30,1.0,7.0,72,0.00,,,0.00,WUHU216DAVISVP2,2013-09-07 22:07:00,
2013-09-07 15:08:00,70.2,60.7,29.99,North,6,0.0,7.0,72,0.00,,,0.00,WUHU216DAVISVP2,2013-09-07 22:08:00,
2013-09-07 15:10:00,70.3,61.0,29.99,NNW,328,0.0,7.0,72,0.00,,,0.00,WUHU216DAVISVP2,2013-09-07 22:10:00,
2013-09-07 15:11:00,70.3,61.0,29.99,West,274,4.0,7.0,72,0.00,,,0.00,WUHU216DAVISVP2,2013-09-07 22:11:00,
2013-09-07 15:12:00,70.4,60.5,29.99,WNW,295,4.0,7.0,71,0.00,,,0.00,WUHU216DAVISVP2,2013-09-07 22:12:00,
2013-09-07 15:15:00,70.1,60.7,29.99,West,271,2.0,7.0,72,0.00,,,0.00,WUHU216DAVISVP2,2013-09-07 22:15:00,
2013-09-07 15:16:00,70.0,60.6,29.99,West,281,4.0,8.0,72,0.00,,,0.00,WUHU216DAVISVP2,2013-09-07 22:16:00,
2013-09-07 15:17:00,69.9,61.2,29.99,NNE,18,0.0,8.0,74,0.00,,,0.00,WUHU216DAVISVP2,2013-09-07 22:17:00,
2013-09-07 15:21:00,69.6,60.7,29.99,NW,309,3.0,8.0,73,0.00,,,0.00,WUHU216DAVISVP2,2013-09-07 22:21:00,
2013-09-07 15:22:00,69.5,60.2,29.99,NNW,330,3.0,8.0,72,0.00,,,0.00,WUHU216DAVISVP2,2013-09-07 22:22:00,
2013-09-07 15:26:00,69.1,60.6,29.99,SW,230,1.0,8.0,74,0.00,,,0.00,WUHU216DAVISVP2,2013-09-07 22:26:00,
2013-09-07 15:27:00,69.2,60.7,29.99,NNE,33,0.0,8.0,74,0.00,,,0.00,WUHU216DAVISVP2,2013-09-07 22:27:00,
2013-09-07 15:31:00,69.9,61.0,29.98,WNW,293,0.0,8.0,73,0.00,,,0.00,WUHU216DAVISVP2,2013-09-07 22:31:00,
2013-09-07 15:32:00,70.1,61.2,29.98,NNW,345,0.0,8.0,73,0.00,,,0.00,WUHU216DAVISVP2,2013-09-07 22:32:00,
2013-09-07 15:33:00,70.2,61.3,29.98,NW,311,0.0,8.0,73,0.00,,,0.00,WUHU216DAVISVP2,2013-09-07 22:33:00,
2013-09-07 15:34:00,70.5,61.6,29.98,NNE,23,0.0,8.0,73,0.00,,,0.00,WUHU216DAVISVP2,2013-09-07 22:34:00,
2013-09-07 15:36:00,70.6,60.9,29.98,East,81,2.0,8.0,71,0.00,,,0.00,WUHU216DAVISVP2,2013-09-07 22:36:00,
2013-09-07 15:37:00,70.6,60.9,29.98,SE,129,1.0,8.0,71,0.00,,,0.00,WUHU216DAVISVP2,2013-09-07 22:37:00,
2013-09-07 15:38:00,70.5,60.8,29.98,NNW,329,1.0,8.0,71,0.00,,,0.00,WUHU216DAVISVP2,2013-09-07 22:38:00,
2013-09-07 15:39:00,70.3,60.2,29.98,NNW,333,1.0,8.0,70,0.00,,,0.00,WUHU216DAVISVP2,2013-09-07 22:39:00,
2013-09-07 15:41:00,70.0,60.3,29.98,WNW,288,1.0,8.0,71,0.00,,,0.00,WUHU216DAVISVP2,2013-09-07 22:41:00,
2013-09-07 15:42:00,69.9,60.2,29.98,NE,51,1.0,8.0,71,0.00,,,0.00,WUHU216DAVISVP2,2013-09-07 22:42:00,
2013-09-07 15:43:00,69.8,60.1,29.98,NNE,18,0.0,8.0,71,0.00,,,0.00,WUHU216DAVISVP2,2013-09-07 22:43:00,
2013-09-07 15:45:00,69.7,60.0,29.98,NNW,331,1.0,7.0,71,0.00,,,0.00,WUHU216DAVISVP2,2013-09-07 22:45:00,
2013-09-07 15:47:00,69.6,59.9,29.99,NNW,339,0.0,7.0,71,0.00,,,0.00,WUHU216DAVISVP2,2013-09-07 22:47:00,
2013-09-07 15:48:00,69.5,60.2,29.98,North,354,2.0,6.0,72,0.00,,,0.00,WUHU216DAVISVP2,2013-09-07 22:48:00,
2013-09-07 15:50:00,69.5,60.2,29.98,NE,44,2.0,6.0,72,0.00,,,0.00,WUHU216DAVISVP2,2013-09-07 22:50:00,
2013-09-07 15:52:00,69.4,60.5,29.98,NNE,18,1.0,6.0,73,0.00,,,0.00,WUHU216DAVISVP2,2013-09-07 22:52:00,
2013-09-07 15:53:00,69.3,59.9,29.98,NW,312,0.0,6.0,72,0.00,,,0.00,WUHU216DAVISVP2,2013-09-07 22:53:00,
2013-09-07 15:56:00,69.2,60.2,29.98,NNW,327,1.0,6.0,73,0.00,,,0.00,WUHU216DAVISVP2,2013-09-07 22:56:00,
2013-09-07 15:57:00,69.2,60.2,29.98,WNW,299,3.0,6.0,73,0.00,,,0.00,WUHU216DAVISVP2,2013-09-07 22:57:00,
2013-09-07 15:58:00,69.2,60.2,29.98,North,352,2.0,5.0,73,0.00,,,0.00,WUHU216DAVISVP2,2013-09-07 22:58:00,
2013-09-07 15:59:00,69.3,60.3,29.98,WNW,302,0.0,5.0,73,0.00,,,0.00,WUHU216DAVISVP2,2013-09-07 22:59:00,
2013-09-07 16:02:00,69.4,60.4,29.98,ENE,76,1.0,5.0,73,0.00,,,0.00,WUHU216DAVISVP2,2013-09-07 23:02:00,
2013-09-07 16:03:00,69.4,60.4,29.98,NW,309,2.0,5.0,73,0.00,,,0.00,WUHU216DAVISVP2,2013-09-07 23:03:00,
2013-09-07 16:04:00,69.4,60.4,29.98,NE,35,0.0,4.0,73,0.00,,,0.00,WUHU216DAVISVP2,2013-09-07 23:04:00,
2013-09-07 16:05:00,69.5,60.5,29.98,NNW,328,1.0,4.0,73,0.00,,,0.00,WUHU216DAVISVP2,2013-09-07 23:05:00,
2013-09-07 16:07:00,69.4,60.4,29.98,NW,322,0.0,6.0,73,0.00,,,0.00,WUHU216DAVISVP2,2013-09-07 23:07:00,
2013-09-07 16:08:00,69.5,60.5,29.98,NNE,30,2.0,6.0,73,0.00,,,0.00,WUHU216DAVISVP2,2013-09-07 23:08:00,
2013-09-07 16:09:00,69.4,60.4,29.98,NE,42,1.0,10.0,73,0.00,,,0.00,WUHU216DAVISVP2,2013-09-07 23:09:00,
2013-09-07 16:11:00,69.3,60.3,29.98,North,2,0.0,10.0,73,0.00,,,0.00,WUHU216DAVISVP2,2013-09-07 23:11:00,
2013-09-07 16:13:00,69.2,60.2,29.98,NNE,20,1.0,10.0,73,0.00,,,0.00,WUHU216DAVISVP2,2013-09-07 23:13:00,
2013-09-07 16:14:00,69.2,60.2,29.98,North,349,2.0,10.0,73,0.00,,,0.00,WUHU216DAVISVP2,2013-09-07 23:14:00,
2013-09-07 16:15:00,69.2,60.6,29.98,WNW,290,2.0,10.0,74,0.00,,,0.00,WUHU216DAVISVP2,2013-09-07 23:15:00,
2013-09-07 16:16:00,69.2,60.6,29.98,NE,43,0.0,10.0,74,0.00,,,0.00,WUHU216DAVISVP2,2013-09-07 23:16:00,
2013-09-07 16:18:00,69.3,60.7,29.97,NNE,18,0.0,10.0,74,0.00,,,0.00,WUHU216DAVISVP2,2013-09-07 23:18:00,
2013-09-07 16:19:00,69.3,60.3,29.97,East,92,0.0,10.0,73,0.00,,,0.00,WUHU216DAVISVP2,2013-09-07 23:19:00,
2013-09-07 16:21:00,69.4,60.8,29.97,West,275,3.0,10.0,74,0.00,,,0.00,WUHU216DAVISVP2,2013-09-07 23:21:00,
2013-09-07 16:24:00,69.4,60.4,29.98,East,86,1.0,10.0,73,0.00,,,0.00,WUHU216DAVISVP2,2013-09-07 23:24:00,
2013-09-07 16:26:00,69.5,60.8,29.97,South,170,0.0,10.0,74,0.00,,,0.00,WUHU216DAVISVP2,2013-09-07 23:26:00,
2013-09-07 16:27:00,69.5,60.5,29.98,WSW,245,2.0,10.0,73,0.00,,,0.00,WUHU216DAVISVP2,2013-09-07 23:27:00,
2013-09-07 16:29:00,69.6,60.6,29.97,NNE,21,1.0,7.0,73,0.00,,,0.00,WUHU216DAVISVP2,2013-09-07 23:29:00,
2013-09-07 16:32:00,69.7,61.0,29.97,NNW,328,1.0,7.0,74,0.00,,,0.00,WUHU216DAVISVP2,2013-09-07 23:32:00,
2013-09-07 16:33:00,69.7,60.8,29.97,NNE,32,1.0,7.0,73,0.00,,,0.00,WUHU216DAVISVP2,2013-09-07 23:33:00,
2013-09-07 16:34:00,69.8,60.9,29.97,WNW,294,1.0,7.0,73,0.00,,,0.00,WUHU216DAVISVP2,2013-09-07 23:34:00,
2013-09-07 16:35:00,69.9,61.0,29.97,NNE,20,2.0,7.0,73,0.00,,,0.00,WUHU216DAVISVP2,2013-09-07 23:35:00,
2013-09-07 16:37:00,69.8,60.9,29.97,NNW,347,2.0,7.0,73,0.00,,,0.00,WUHU216DAVISVP2,2013-09-07 23:37:00,
2013-09-07 16:38:00,69.7,60.8,29.97,NW,316,2.0,7.0,73,0.00,,,0.00,WUHU216DAVISVP2,2013-09-07 23:38:00,
2013-09-07 16:39:00,69.6,60.7,29.97,WNW,282,1.0,7.0,73,0.00,,,0.00,WUHU216DAVISVP2,2013-09-07 23:39:00,
2013-09-07 16:41:00,69.3,60.4,29.97,East,82,0.0,7.0,73,0.00,,,0.00,WUHU216DAVISVP2,2013-09-07 23:41:00,
2013-09-07 16:42:00,69.2,60.7,29.97,NNW,346,4.0,7.0,74,0.00,,,0.00,WUHU216DAVISVP2,2013-09-07 23:42:00,
2013-09-07 16:43:00,69.2,60.7,29.97,WNW,300,1.0,7.0,74,0.00,,,0.00,WUHU216DAVISVP2,2013-09-07 23:43:00,
2013-09-07 16:44:00,69.2,60.7,29.97,East,79,1.0,5.0,74,0.00,,,0.00,WUHU216DAVISVP2,2013-09-07 23:44:00,
2013-09-07 16:46:00,69.3,60.8,29.97,NE,46,0.0,5.0,74,0.00,,,0.00,WUHU216DAVISVP2,2013-09-07 23:46:00,
2013-09-07 16:48:00,69.5,61.0,29.97,WNW,290,1.0,5.0,74,0.00,,,0.00,WUHU216DAVISVP2,2013-09-07 23:48:00,
2013-09-07 16:49:00,69.6,60.7,29.97,ENE,74,1.0,5.0,73,0.00,,,0.00,WUHU216DAVISVP2,2013-09-07 23:49:00,
2013-09-07 16:53:00,69.4,60.5,29.97,NW,304,2.0,6.0,73,0.00,,,0.00,WUHU216DAVISVP2,2013-09-07 23:53:00,
2013-09-07 16:54:00,69.4,60.5,29.97,North,349,1.0,6.0,73,0.00,,,0.00,WUHU216DAVISVP2,2013-09-07 23:54:00,
2013-09-07 16:55:00,69.3,60.4,29.97,NNE,33,1.0,6.0,73,0.00,,,0.00,WUHU216DAVISVP2,2013-09-07 23:55:00,
2013-09-07 16:58:00,68.9,60.4,29.97,East,79,1.0,6.0,74,0.00,,,0.00,WUHU216DAVISVP2,2013-09-07 23:58:00,
2013-09-07 16:59:00,68.9,60.4,29.97,NNW,347,1.0,6.0,74,0.00,,,0.00,WUHU216DAVISVP2,2013-09-07 23:59:00,
2013-09-07 17:00:00,68.9,60.4,29.97,West,267,4.0,6.0,74,0.00,,,0.00,WUHU216DAVISVP2,2013-09-08 00:00:00,
2013-09-07 17:04:00,69.0,60.9,29.97,NW,312,3.0,7.0,75,0.00,,,0.00,WUHU216DAVISVP2,2013-09-08 00:04:00,
2013-09-07 17:05:00,69.0,60.9,29.97,North,352,0.0,7.0,75,0.00,,,0.00,WUHU216DAVISVP2,2013-09-08 00:05:00,
2013-09-07 17:06:00,69.1,60.6,29.97,NNW,327,1.0,7.0,74,0.00,,,0.00,WUHU216DAVISVP2,2013-09-08 00:06:00,
2013-09-07 17:09:00,69.0,60.9,29.97,WNW,285,2.0,7.0,75,0.00,,,0.00,WUHU216DAVISVP2,2013-09-08 00:09:00,
2013-09-07 17:10:00,69.0,60.9,29.97,NE,42,1.0,7.0,75,0.00,,,0.00,WUHU216DAVISVP2,2013-09-08 00:10:00,
2013-09-07 17:12:00,69.0,60.5,29.97,NE,41,1.0,7.0,74,0.00,,,0.00,WUHU216DAVISVP2,2013-09-08 00:12:00,
2013-09-07 17:14:00,68.9,60.8,29.97,WNW,282,0.0,7.0,75,0.00,,,0.00,WUHU216DAVISVP2,2013-09-08 00:14:00,
2013-09-07 17:15:00,68.9,60.8,29.97,NW,304,1.0,7.0,75,0.00,,,0.00,WUHU216DAVISVP2,2013-09-08 00:15:00,
2013-09-07 17:18:00,68.8,60.7,29.97,NNE,14,0.0,7.0,75,0.00,,,0.00,WUHU216DAVISVP2,2013-09-08 00:18:00,
2013-09-07 17:19:00,69.0,60.9,29.97,NW,304,1.0,7.0,75,0.00,,,0.00,WUHU216DAVISVP2,2013-09-08 00:19:00,
2013-09-07 17:20:00,69.0,60.9,29.97,East,79,0.0,7.0,75,0.00,,,0.00,WUHU216DAVISVP2,2013-09-08 00:20:00,
2013-09-07 17:24:00,68.8,60.7,29.97,NNW,335,2.0,6.0,75,0.00,,,0.00,WUHU216DAVISVP2,2013-09-08 00:24:00,
2013-09-07 17:25:00,68.8,60.7,29.97,East,94,2.0,6.0,75,0.00,,,0.00,WUHU216DAVISVP2,2013-09-08 00:25:00,
2013-09-07 17:28:00,68.5,60.4,29.97,North,354,1.0,6.0,75,0.00,,,0.00,WUHU216DAVISVP2,2013-09-08 00:28:00,
2013-09-07 17:29:00,68.4,60.3,29.97,WNW,297,1.0,6.0,75,0.00,,,0.00,WUHU216DAVISVP2,2013-09-08 00:29:00,
2013-09-07 17:30:00,68.4,60.7,29.97,West,276,1.0,6.0,76,0.00,,,0.00,WUHU216DAVISVP2,2013-09-08 00:30:00,
2013-09-07 17:31:00,68.3,60.6,29.97,NW,316,2.0,6.0,76,0.00,,,0.00,WUHU216DAVISVP2,2013-09-08 00:31:00,
2013-09-07 17:34:00,68.4,60.7,29.97,NNE,24,0.0,6.0,76,0.00,,,0.00,WUHU216DAVISVP2,2013-09-08 00:34:00,
2013-09-07 17:35:00,68.5,60.8,29.97,NE,49,0.0,5.0,76,0.00,,,0.00,WUHU216DAVISVP2,2013-09-08 00:35:00,
2013-09-07 17:36:00,68.5,60.8,29.97,NNE,30,0.0,5.0,76,0.00,,,0.00,WUHU216DAVISVP2,2013-09-08 00:36:00,
2013-09-07 17:40:00,68.4,60.7,29.97,North,354,2.0,5.0,76,0.00,,,0.00,WUHU216DAVISVP2,2013-09-08 00:40:00,
2013-09-07 17:41:00,68.4,60.7,29.97,North,354,0.0,5.0,76,0.00,,,0.00,WUHU216DAVISVP2,2013-09-08 00:41:00,
2013-09-07 17:45:00,68.2,60.8,29.97,WSW,258,0.0,5.0,77,0.00,,,0.00,WUHU216DAVISVP2,2013-09-08 00:45:00,
2013-09-07 17:46:00,68.2,60.8,29.97,NE,46,0.0,5.0,77,0.00,,,0.00,WUHU216DAVISVP2,2013-09-08 00:46:00,
2013-09-07 17:47:00,68.2,60.8,29.97,North,359,0.0,5.0,77,0.00,,,0.00,WUHU216DAVISVP2,2013-09-08 00:47:00,
2013-09-07 17:50:00,68.3,60.9,29.97,East,96,3.0,5.0,77,0.00,,,0.00,WUHU216DAVISVP2,2013-09-08 00:50:00,
2013-09-07 17:51:00,68.1,60.7,29.97,North,353,3.0,5.0,77,0.00,,,0.00,WUHU216DAVISVP2,2013-09-08 00:51:00,
2013-09-07 17:52:00,68.1,60.7,29.97,NE,44,2.0,5.0,77,0.00,,,0.00,WUHU216DAVISVP2,2013-09-08 00:52:00,
2013-09-07 17:55:00,67.7,60.7,29.97,ESE,113,1.0,5.0,78,0.00,,,0.00,WUHU216DAVISVP2,2013-09-08 00:55:00,
2013-09-07 17:56:00,67.6,60.6,29.97,NE,56,4.0,5.0,78,0.00,,,0.00,WUHU216DAVISVP2,2013-09-08 00:56:00,
2013-09-07 17:57:00,67.6,60.6,29.97,NNE,18,0.0,5.0,78,0.00,,,0.00,WUHU216DAVISVP2,2013-09-08 00:57:00,
2013-09-07 17:58:00,67.5,60.8,29.97,NE,44,0.0,5.0,79,0.00,,,0.00,WUHU216DAVISVP2,2013-09-08 00:58:00,
2013-09-07 18:00:00,67.5,60.8,29.97,NNW,332,1.0,5.0,79,0.00,,,0.00,WUHU216DAVISVP2,2013-09-08 01:00:00,
2013-09-07 18:02:00,67.5,60.8,29.97,NE,35,0.0,5.0,79,0.00,,,0.00,WUHU216DAVISVP2,2013-09-08 01:02:00,
2013-09-07 18:03:00,67.6,60.9,29.97,North,349,1.0,5.0,79,0.00,,,0.00,WUHU216DAVISVP2,2013-09-08 01:03:00,
2013-09-07 18:05:00,67.6,60.5,29.97,WNW,289,4.0,6.0,78,0.00,,,0.00,WUHU216DAVISVP2,2013-09-08 01:05:00,
2013-09-07 18:07:00,67.3,60.6,29.97,NNE,15,1.0,6.0,79,0.00,,,0.00,WUHU216DAVISVP2,2013-09-08 01:07:00,
2013-09-07 18:08:00,67.2,60.5,29.97,NNE,23,2.0,6.0,79,0.00,,,0.00,WUHU216DAVISVP2,2013-09-08 01:08:00,
2013-09-07 18:09:00,67.1,60.4,29.97,North,350,1.0,6.0,79,0.00,,,0.00,WUHU216DAVISVP2,2013-09-08 01:09:00,
2013-09-07 18:10:00,67.1,60.4,29.97,North,9,0.0,6.0,79,0.00,,,0.00,WUHU216DAVISVP2,2013-09-08 01:10:00,
2013-09-07 18:12:00,67.0,60.3,29.97,NNW,333,2.0,6.0,79,0.00,,,0.00,WUHU216DAVISVP2,2013-09-08 01:12:00,
2013-09-07 18:13:00,66.9,60.2,29.97,North,11,0.0,6.0,79,0.00,,,0.00,WUHU216DAVISVP2,2013-09-08 01:13:00,
2013-09-07 18:14:00,66.8,60.4,29.97,NW,316,0.0,6.0,80,0.00,,,0.00,WUHU216DAVISVP2,2013-09-08 01:14:00,
2013-09-07 18:15:00,66.7,60.3,29.97,WNW,303,1.0,6.0,80,0.00,,,0.00,WUHU216DAVISVP2,2013-09-08 01:15:00,
2013-09-07 18:17:00,66.7,60.3,29.97,SW,226,2.0,6.0,80,0.00,,,0.00,WUHU216DAVISVP2,2013-09-08 01:17:00,
2013-09-07 18:18:00,66.7,60.3,29.97,NNE,22,1.0,6.0,80,0.00,,,0.00,WUHU216DAVISVP2,2013-09-08 01:18:00,
2013-09-07 18:19:00,66.6,60.2,29.97,NNW,342,0.0,6.0,80,0.00,,,0.00,WUHU216DAVISVP2,2013-09-08 01:19:00,
2013-09-07 18:20:00,66.6,60.2,29.97,NNE,22,0.0,6.0,80,0.00,,,0.00,WUHU216DAVISVP2,2013-09-08 01:20:00,
2013-09-07 18:22:00,66.6,60.2,29.97,NNW,327,0.0,6.0,80,0.00,,,0.00,WUHU216DAVISVP2,2013-09-08 01:22:00,
2013-09-07 18:23:00,66.6,60.2,29.97,NE,56,0.0,6.0,80,0.00,,,0.00,WUHU216DAVISVP2,2013-09-08 01:23:00,
2013-09-07 18:24:00,66.5,60.5,29.97,NW,326,0.0,5.0,81,0.00,,,0.00,WUHU216DAVISVP2,2013-09-08 01:24:00,
2013-09-07 18:25:00,66.5,60.5,29.97,SSE,158,0.0,5.0,81,0.00,,,0.00,WUHU216DAVISVP2,2013-09-08 01:25:00,
2013-09-07 18:27:00,66.5,60.5,29.97,NNW,342,2.0,5.0,81,0.00,,,0.00,WUHU216DAVISVP2,2013-09-08 01:27:00,
2013-09-07 18:28:00,66.4,60.4,29.97,NNE,20,1.0,5.0,81,0.00,,,0.00,WUHU216DAVISVP2,2013-09-08 01:28:00,
2013-09-07 18:30:00,66.3,60.3,29.97,NNW,333,0.0,5.0,81,0.00,,,0.00,WUHU216DAVISVP2,2013-09-08 01:30:00,
2013-09-07 18:32:00,66.1,60.4,29.96,North,359,1.0,7.0,82,0.00,,,0.00,WUHU216DAVISVP2,2013-09-08 01:32:00,
2013-09-07 18:33:00,66.0,60.3,29.96,North,11,1.0,7.0,82,0.00,,,0.00,WUHU216DAVISVP2,2013-09-08 01:33:00,
2013-09-07 18:35:00,65.7,60.1,29.96,South,184,0.0,7.0,82,0.00,,,0.00,WUHU216DAVISVP2,2013-09-08 01:35:00,
2013-09-07 18:36:00,65.6,60.3,29.96,North,354,0.0,7.0,83,0.00,,,0.00,WUHU216DAVISVP2,2013-09-08 01:36:00,
2013-09-07 18:37:00,65.6,60.3,29.96,WNW,297,1.0,7.0,83,0.00,,,0.00,WUHU216DAVISVP2,2013-09-08 01:37:00,
2013-09-07 18:38:00,65.4,60.1,29.96,NNW,330,1.0,7.0,83,0.00,,,0.00,WUHU216DAVISVP2,2013-09-08 01:38:00,
2013-09-07 18:40:00,65.3,60.0,29.96,NNW,343,0.0,7.0,83,0.00,,,0.00,WUHU216DAVISVP2,2013-09-08 01:40:00,
2013-09-07 18:41:00,65.2,59.9,29.96,NNW,344,0.0,7.0,83,0.00,,,0.00,WUHU216DAVISVP2,2013-09-08 01:41:00,
2013-09-07 18:42:00,65.2,60.3,29.96,NW,321,2.0,7.0,84,0.00,,,0.00,WUHU216DAVISVP2,2013-09-08 01:42:00,
2013-09-07 18:43:00,65.2,60.3,29.96,NNE,18,0.0,7.0,84,0.00,,,0.00,WUHU216DAVISVP2,2013-09-08 01:43:00,
2013-09-07 18:45:00,65.1,60.2,29.96,ENE,70,0.0,7.0,84,0.00,,,0.00,WUHU216DAVISVP2,2013-09-08 01:45:00,
2013-09-07 18:46:00,65.1,60.2,29.96,NNW,328,0.0,7.0,84,0.00,,,0.00,WUHU216DAVISVP2,2013-09-08 01:46:00,
2013-09-07 18:47:00,65.1,60.2,29.96,NE,35,1.0,7.0,84,0.00,,,0.00,WUHU216DAVISVP2,2013-09-08 01:47:00,
2013-09-07 18:48:00,65.1,60.2,29.96,NNW,345,0.0,7.0,84,0.00,,,0.00,WUHU216DAVISVP2,2013-09-08 01:48:00,
2013-09-07 18:50:00,65.0,60.1,29.96,North,360,0.0,5.0,84,0.00,,,0.00,WUHU216DAVISVP2,2013-09-08 01:50:00,
2013-09-07 18:51:00,65.0,60.1,29.96,ENE,67,0.0,5.0,84,0.00,,,0.00,WUHU216DAVISVP2,2013-09-08 01:51:00,
2013-09-07 18:52:00,65.0,60.1,29.96,West,280,0.0,5.0,84,0.00,,,0.00,WUHU216DAVISVP2,2013-09-08 01:52:00,
2013-09-07 18:53:00,65.1,60.2,29.96,North,355,0.0,5.0,84,0.00,,,0.00,WUHU216DAVISVP2,2013-09-08 01:53:00,
2013-09-07 18:56:00,65.0,60.1,29.96,North,353,0.0,5.0,84,0.00,,,0.00,WUHU216DAVISVP2,2013-09-08 01:56:00,
2013-09-07 18:57:00,65.1,60.2,29.96,NE,45,0.0,3.0,84,0.00,,,0.00,WUHU216DAVISVP2,2013-09-08 01:57:00,
2013-09-07 18:58:00,65.2,60.3,29.96,NNW,348,0.0,2.0,84,0.00,,,0.00,WUHU216DAVISVP2,2013-09-08 01:58:00,
2013-09-07 18:59:00,65.2,60.3,29.96,NNW,335,0.0,2.0,84,0.00,,,0.00,WUHU216DAVISVP2,2013-09-08 01:59:00,
2013-09-07 19:01:00,65.3,60.4,29.96,ENE,63,0.0,2.0,84,0.00,,,0.00,WUHU216DAVISVP2,2013-09-08 02:01:00,
2013-09-07 19:02:00,65.5,60.6,29.96,ENE,58,0.0,2.0,84,0.00,,,0.00,WUHU216DAVISVP2,2013-09-08 02:02:00,
2013-09-07 19:03:00,65.6,60.7,29.96,NNW,347,0.0,2.0,84,0.00,,,0.00,WUHU216DAVISVP2,2013-09-08 02:03:00,
2013-09-07 19:05:00,65.6,60.3,29.96,North,360,0.0,2.0,83,0.00,,,0.00,WUHU216DAVISVP2,2013-09-08 02:05:00,
2013-09-07 19:06:00,65.7,60.4,29.96,North,356,0.0,2.0,83,0.00,,,0.00,WUHU216DAVISVP2,2013-09-08 02:06:00,
2013-09-07 19:07:00,65.8,60.5,29.96,West,263,0.0,2.0,83,0.00,,,0.00,WUHU216DAVISVP2,2013-09-08 02:07:00,
2013-09-07 19:08:00,65.8,60.5,29.96,NNE,12,0.0,2.0,83,0.00,,,0.00,WUHU216DAVISVP2,2013-09-08 02:08:00,
2013-09-07 19:11:00,65.8,60.5,29.96,North,8,0.0,2.0,83,0.00,,,0.00,WUHU216DAVISVP2,2013-09-08 02:11:00,
2013-09-07 19:12:00,65.7,60.4,29.96,North,8,0.0,2.0,83,0.00,,,0.00,WUHU216DAVISVP2,2013-09-08 02:12:00,
2013-09-07 19:13:00,65.7,60.4,29.96,NNW,333,0.0,2.0,83,0.00,,,0.00,WUHU216DAVISVP2,2013-09-08 02:13:00,
2013-09-07 19:16:00,65.4,60.1,29.96,WNW,290,0.0,2.0,83,0.00,,,0.00,WUHU216DAVISVP2,2013-09-08 02:16:00,
2013-09-07 19:17:00,65.4,60.5,29.96,WNW,290,0.0,2.0,84,0.00,,,0.00,WUHU216DAVISVP2,2013-09-08 02:17:00,
2013-09-07 19:18:00,65.3,60.4,29.96,WNW,290,0.0,2.0,84,0.00,,,0.00,WUHU216DAVISVP2,2013-09-08 02:18:00,
2013-09-07 19:19:00,65.2,60.3,29.96,WNW,282,0.0,2.0,84,0.00,,,0.00,WUHU216DAVISVP2,2013-09-08 02:19:00,
2013-09-07 19:22:00,64.9,60.3,29.96,WNW,282,0.0,2.0,85,0.00,,,0.00,WUHU216DAVISVP2,2013-09-08 02:22:00,
2013-09-07 19:23:00,64.8,60.2,29.96,WNW,288,0.0,1.0,85,0.00,,,0.00,WUHU216DAVISVP2,2013-09-08 02:23:00,
2013-09-07 19:24:00,64.6,60.0,29.96,WNW,288,0.0,1.0,85,0.00,,,0.00,WUHU216DAVISVP2,2013-09-08 02:24:00,
2013-09-07 19:27:00,64.4,60.1,29.96,WNW,295,0.0,1.0,86,0.00,,,0.00,WUHU216DAVISVP2,2013-09-08 02:27:00,
2013-09-07 19:28:00,64.3,60.0,29.96,WNW,295,0.0,1.0,86,0.00,,,0.00,WUHU216DAVISVP2,2013-09-08 02:28:00,
2013-09-07 19:29:00,64.3,60.0,29.96,WNW,295,0.0,1.0,86,0.00,,,0.00,WUHU216DAVISVP2,2013-09-08 02:29:00,
2013-09-07 19:32:00,64.1,59.8,29.96,WNW,295,0.0,1.0,86,0.00,,,0.00,WUHU216DAVISVP2,2013-09-08 02:32:00,
2013-09-07 19:33:00,64.1,60.1,29.96,WNW,295,0.0,1.0,87,0.00,,,0.00,WUHU216DAVISVP2,2013-09-08 02:33:00,
2013-09-07 19:34:00,64.0,60.0,29.96,WNW,284,0.0,1.0,87,0.00,,,0.00,WUHU216DAVISVP2,2013-09-08 02:34:00,
2013-09-07 19:37:00,63.8,59.9,29.96,NW,326,0.0,1.0,87,0.00,,,0.00,WUHU216DAVISVP2,2013-09-08 02:37:00,
2013-09-07 19:38:00,63.8,59.9,29.96,NW,304,0.0,1.0,87,0.00,,,0.00,WUHU216DAVISVP2,2013-09-08 02:38:00,
2013-09-07 19:39:00,63.7,59.8,29.96,WNW,285,0.0,1.0,87,0.00,,,0.00,WUHU216DAVISVP2,2013-09-08 02:39:00,
2013-09-07 19:42:00,63.6,60.0,29.96,WNW,282,0.0,1.0,88,0.00,,,0.00,WUHU216DAVISVP2,2013-09-08 02:42:00,
2013-09-07 19:43:00,63.5,59.9,29.96,West,276,0.0,1.0,88,0.00,,,0.00,WUHU216DAVISVP2,2013-09-08 02:43:00,
2013-09-07 19:44:00,63.5,59.9,29.96,West,280,0.0,1.0,88,0.00,,,0.00,WUHU216DAVISVP2,2013-09-08 02:44:00,
2013-09-07 19:45:00,63.4,59.8,29.96,NNW,339,0.0,1.0,88,0.00,,,0.00,WUHU216DAVISVP2,2013-09-08 02:45:00,
2013-09-07 19:47:00,63.4,59.8,29.96,NNW,339,0.0,1.0,88,0.00,,,0.00,WUHU216DAVISVP2,2013-09-08 02:47:00,
2013-09-07 19:49:00,63.3,59.7,29.96,NNW,339,0.0,1.0,88,0.00,,,0.00,WUHU216DAVISVP2,2013-09-08 02:49:00,
2013-09-07 19:50:00,63.2,59.6,29.96,West,275,0.0,1.0,88,0.00,,,0.00,WUHU216DAVISVP2,2013-09-08 02:50:00,
2013-09-07 19:51:00,63.2,59.6,29.96,West,280,0.0,1.0,88,0.00,,,0.00,WUHU216DAVISVP2,2013-09-08 02:51:00,
2013-09-07 19:52:00,63.1,59.5,29.96,West,280,0.0,1.0,88,0.00,,,0.00,WUHU216DAVISVP2,2013-09-08 02:52:00,
2013-09-07 19:54:00,63.1,59.8,29.96,West,281,0.0,1.0,89,0.00,,,0.00,WUHU216DAVISVP2,2013-09-08 02:54:00,
2013-09-07 19:55:00,63.0,59.7,29.96,West,281,0.0,1.0,89,0.00,,,0.00,WUHU216DAVISVP2,2013-09-08 02:55:00,
2013-09-07 19:56:00,63.0,59.7,29.96,West,281,0.0,1.0,89,0.00,,,0.00,WUHU216DAVISVP2,2013-09-08 02:56:00,
2013-09-07 19:57:00,62.9,59.6,29.96,WSW,248,0.0,1.0,89,0.00,,,0.00,WUHU216DAVISVP2,2013-09-08 02:57:00,
2013-09-07 19:59:00,62.8,59.5,29.96,WSW,248,0.0,1.0,89,0.00,,,0.00,WUHU216DAVISVP2,2013-09-08 02:59:00,
2013-09-07 20:00:00,62.8,59.5,29.97,WSW,248,0.0,1.0,89,0.00,,,0.00,WUHU216DAVISVP2,2013-09-08 03:00:00,
2013-09-07 20:01:00,62.7,59.4,29.97,WSW,248,0.0,1.0,89,0.00,,,0.00,WUHU216DAVISVP2,2013-09-08 03:01:00,
2013-09-07 20:02:00,62.7,59.4,29.97,WSW,248,0.0,0.0,89,0.00,,,0.00,WUHU216DAVISVP2,2013-09-08 03:02:00,
2013-09-07 20:04:00,62.6,59.6,29.97,WSW,248,0.0,0.0,90,0.00,,,0.00,WUHU216DAVISVP2,2013-09-08 03:04:00,
2013-09-07 20:05:00,62.6,59.6,29.97,WSW,248,0.0,0.0,90,0.00,,,0.00,WUHU216DAVISVP2,2013-09-08 03:05:00,
2013-09-07 20:06:00,62.5,59.5,29.97,WSW,248,0.0,0.0,90,0.00,,,0.00,WUHU216DAVISVP2,2013-09-08 03:06:00,
2013-09-07 20:07:00,62.5,59.5,29.97,WSW,248,0.0,0.0,90,0.00,,,0.00,WUHU216DAVISVP2,2013-09-08 03:07:00,
2013-09-07 20:09:00,62.4,59.4,29.97,WSW,248,0.0,0.0,90,0.00,,,0.00,WUHU216DAVISVP2,2013-09-08 03:09:00,
2013-09-07 20:10:00,62.4,59.4,29.97,WSW,248,0.0,0.0,90,0.00,,,0.00,WUHU216DAVISVP2,2013-09-08 03:10:00,
2013-09-07 20:12:00,62.3,59.3,29.97,WSW,248,0.0,0.0,90,0.00,,,0.00,WUHU216DAVISVP2,2013-09-08 03:12:00,
2013-09-07 20:14:00,62.2,59.2,29.97,WSW,248,0.0,0.0,90,0.00,,,0.00,WUHU216DAVISVP2,2013-09-08 03:14:00,
2013-09-07 20:16:00,62.1,59.1,29.97,WSW,248,0.0,0.0,90,0.00,,,0.00,WUHU216DAVISVP2,2013-09-08 03:16:00,
2013-09-07 20:17:00,62.1,59.1,29.97,WSW,248,0.0,0.0,90,0.00,,,0.00,WUHU216DAVISVP2,2013-09-08 03:17:00,
2013-09-07 20:19:00,62.0,59.3,29.97,WSW,248,0.0,0.0,91,0.00,,,0.00,WUHU216DAVISVP2,2013-09-08 03:19:00,
2013-09-07 20:20:00,62.0,59.0,29.97,WSW,248,0.0,0.0,90,0.00,,,0.00,WUHU216DAVISVP2,2013-09-08 03:20:00,
2013-09-07 20:21:00,61.9,58.9,29.97,WSW,248,0.0,0.0,90,0.00,,,0.00,WUHU216DAVISVP2,2013-09-08 03:21:00,
2013-09-07 20:22:00,61.8,59.1,29.97,WSW,248,0.0,0.0,91,0.00,,,0.00,WUHU216DAVISVP2,2013-09-08 03:22:00,
2013-09-07 20:23:00,61.8,59.1,29.97,WSW,248,0.0,0.0,91,0.00,,,0.00,WUHU216DAVISVP2,2013-09-08 03:23:00,
2013-09-07 20:24:00,61.7,59.0,29.98,WSW,248,0.0,0.0,91,0.00,,,0.00,WUHU216DAVISVP2,2013-09-08 03:24:00,
2013-09-07 20:25:00,61.6,58.9,29.98,WSW,248,0.0,0.0,91,0.00,,,0.00,WUHU216DAVISVP2,2013-09-08 03:25:00,
2013-09-07 20:26:00,61.6,58.9,29.98,WSW,248,0.0,0.0,91,0.00,,,0.00,WUHU216DAVISVP2,2013-09-08 03:26:00,
2013-09-07 20:27:00,61.5,58.8,29.98,WSW,248,0.0,0.0,91,0.00,,,0.00,WUHU216DAVISVP2,2013-09-08 03:27:00,
2013-09-07 20:29:00,61.4,58.7,29.98,WSW,248,0.0,0.0,91,0.00,,,0.00,WUHU216DAVISVP2,2013-09-08 03:29:00,
2013-09-07 20:30:00,61.4,58.7,29.98,WSW,248,0.0,0.0,91,0.00,,,0.00,WUHU216DAVISVP2,2013-09-08 03:30:00,
2013-09-07 20:31:00,61.3,58.9,29.98,WSW,248,0.0,0.0,92,0.00,,,0.00,WUHU216DAVISVP2,2013-09-08 03:31:00,
2013-09-07 20:32:00,61.3,58.9,29.98,WSW,248,0.0,0.0,92,0.00,,,0.00,WUHU216DAVISVP2,2013-09-08 03:32:00,
2013-09-07 20:33:00,61.3,58.9,29.98,WSW,248,0.0,0.0,92,0.00,,,0.00,WUHU216DAVISVP2,2013-09-08 03:33:00,
2013-09-07 20:34:00,61.3,58.9,29.98,WSW,248,0.0,0.0,92,0.00,,,0.00,WUHU216DAVISVP2,2013-09-08 03:34:00,
2013-09-07 20:35:00,61.3,58.9,29.98,WSW,248,0.0,0.0,92,0.00,,,0.00,WUHU216DAVISVP2,2013-09-08 03:35:00,
2013-09-07 20:36:00,61.3,58.9,29.98,WSW,248,0.0,0.0,92,0.00,,,0.00,WUHU216DAVISVP2,2013-09-08 03:36:00,
2013-09-07 20:37:00,61.4,59.0,29.98,West,260,0.0,0.0,92,0.00,,,0.00,WUHU216DAVISVP2,2013-09-08 03:37:00,
2013-09-07 20:38:00,61.4,59.0,29.98,West,260,0.0,0.0,92,0.00,,,0.00,WUHU216DAVISVP2,2013-09-08 03:38:00,
2013-09-07 20:41:00,61.5,59.1,29.99,WSW,245,0.0,1.0,92,0.00,,,0.00,WUHU216DAVISVP2,2013-09-08 03:41:00,
2013-09-07 20:42:00,61.5,59.1,29.99,WSW,240,0.0,1.0,92,0.00,,,0.00,WUHU216DAVISVP2,2013-09-08 03:42:00,
2013-09-07 20:43:00,61.5,59.1,29.99,WSW,240,0.0,1.0,92,0.00,,,0.00,WUHU216DAVISVP2,2013-09-08 03:43:00,
2013-09-07 20:46:00,61.4,59.0,29.99,WSW,240,0.0,1.0,92,0.00,,,0.00,WUHU216DAVISVP2,2013-09-08 03:46:00,
2013-09-07 20:47:00,61.5,59.1,29.99,WSW,240,0.0,1.0,92,0.00,,,0.00,WUHU216DAVISVP2,2013-09-08 03:47:00,
2013-09-07 20:48:00,61.4,59.0,29.99,WSW,240,0.0,1.0,92,0.00,,,0.00,WUHU216DAVISVP2,2013-09-08 03:48:00,
2013-09-07 20:51:00,61.3,58.9,29.99,East,84,0.0,1.0,92,0.00,,,0.00,WUHU216DAVISVP2,2013-09-08 03:51:00,
2013-09-07 20:52:00,61.3,58.9,29.99,East,84,0.0,1.0,92,0.00,,,0.00,WUHU216DAVISVP2,2013-09-08 03:52:00,
2013-09-07 20:53:00,61.2,58.8,29.99,East,84,0.0,1.0,92,0.00,,,0.00,WUHU216DAVISVP2,2013-09-08 03:53:00,
2013-09-07 20:54:00,61.2,59.1,29.99,WNW,301,0.0,1.0,93,0.00,,,0.00,WUHU216DAVISVP2,2013-09-08 03:54:00,
2013-09-07 20:57:00,61.1,59.0,29.99,ENE,65,0.0,1.0,93,0.00,,,0.00,WUHU216DAVISVP2,2013-09-08 03:57:00,
2013-09-07 20:58:00,61.1,59.0,29.99,East,79,0.0,1.0,93,0.00,,,0.00,WUHU216DAVISVP2,2013-09-08 03:58:00,
2013-09-07 21:00:00,61.1,59.0,29.99,East,79,0.0,1.0,93,0.00,,,0.00,WUHU216DAVISVP2,2013-09-08 04:00:00,
2013-09-07 21:01:00,61.1,59.0,29.99,East,79,0.0,1.0,93,0.00,,,0.00,WUHU216DAVISVP2,2013-09-08 04:01:00,
2013-09-07 21:06:00,60.9,58.8,29.99,East,79,0.0,1.0,93,0.00,,,0.00,WUHU216DAVISVP2,2013-09-08 04:06:00,
2013-09-07 21:11:00,60.7,58.6,29.99,East,79,0.0,1.0,93,0.00,,,0.00,WUHU216DAVISVP2,2013-09-08 04:11:00,
2013-09-07 21:13:00,60.6,58.5,29.99,East,79,0.0,1.0,93,0.00,,,0.00,WUHU216DAVISVP2,2013-09-08 04:13:00,
2013-09-07 21:16:00,60.5,58.7,29.99,East,79,0.0,1.0,94,0.00,,,0.00,WUHU216DAVISVP2,2013-09-08 04:16:00,
2013-09-07 21:17:00,60.5,58.7,29.99,East,79,0.0,1.0,94,0.00,,,0.00,WUHU216DAVISVP2,2013-09-08 04:17:00,
2013-09-07 21:18:00,60.5,58.7,29.99,East,79,0.0,0.0,94,0.00,,,0.00,WUHU216DAVISVP2,2013-09-08 04:18:00,
2013-09-07 21:19:00,60.5,58.7,29.99,East,79,0.0,0.0,94,0.00,,,0.00,WUHU216DAVISVP2,2013-09-08 04:19:00,
2013-09-07 21:21:00,60.4,58.3,29.99,East,79,0.0,0.0,93,0.00,,,0.00,WUHU216DAVISVP2,2013-09-08 04:21:00,
2013-09-07 21:22:00,60.3,58.2,29.99,East,79,0.0,0.0,93,0.00,,,0.00,WUHU216DAVISVP2,2013-09-08 04:22:00,
2013-09-07 21:24:00,60.2,58.1,29.99,East,79,0.0,0.0,93,0.00,,,0.00,WUHU216DAVISVP2,2013-09-08 04:24:00,
2013-09-07 21:26:00,60.1,58.3,29.99,East,79,0.0,0.0,94,0.00,,,0.00,WUHU216DAVISVP2,2013-09-08 04:26:00,
2013-09-07 21:27:00,60.1,58.3,29.99,East,79,0.0,0.0,94,0.00,,,0.00,WUHU216DAVISVP2,2013-09-08 04:27:00,
2013-09-07 21:29:00,59.9,58.1,29.99,East,79,0.0,0.0,94,0.00,,,0.00,WUHU216DAVISVP2,2013-09-08 04:29:00,
2013-09-07 21:30:00,59.9,58.1,29.99,East,79,0.0,0.0,94,0.00,,,0.00,WUHU216DAVISVP2,2013-09-08 04:30:00,
2013-09-07 21:31:00,59.9,58.1,29.99,East,79,0.0,0.0,94,0.00,,,0.00,WUHU216DAVISVP2,2013-09-08 04:31:00,
2013-09-07 21:32:00,59.8,58.0,29.99,East,79,0.0,0.0,94,0.00,,,0.00,WUHU216DAVISVP2,2013-09-08 04:32:00,
2013-09-07 21:34:00,59.7,57.9,29.99,East,79,0.0,0.0,94,0.00,,,0.00,WUHU216DAVISVP2,2013-09-08 04:34:00,
2013-09-07 21:36:00,59.6,58.1,29.99,East,79,0.0,0.0,95,0.00,,,0.00,WUHU216DAVISVP2,2013-09-08 04:36:00,
2013-09-07 21:37:00,59.6,58.1,30.00,East,79,0.0,0.0,95,0.00,,,0.00,WUHU216DAVISVP2,2013-09-08 04:37:00,
2013-09-07 21:38:00,59.6,58.1,30.00,East,79,0.0,0.0,95,0.00,,,0.00,WUHU216DAVISVP2,2013-09-08 04:38:00,
2013-09-07 21:39:00,59.5,58.0,30.00,East,79,0.0,0.0,95,0.00,,,0.00,WUHU216DAVISVP2,2013-09-08 04:39:00,
2013-09-07 21:41:00,59.5,58.0,30.00,East,79,0.0,0.0,95,0.00,,,0.00,WUHU216DAVISVP2,2013-09-08 04:41:00,
2013-09-07 21:42:00,59.4,57.9,30.00,East,79,0.0,0.0,95,0.00,,,0.00,WUHU216DAVISVP2,2013-09-08 04:42:00,
2013-09-07 21:43:00,59.4,57.9,30.00,East,79,0.0,0.0,95,0.00,,,0.00,WUHU216DAVISVP2,2013-09-08 04:43:00,
2013-09-07 21:45:00,59.3,57.8,30.00,East,79,0.0,0.0,95,0.00,,,0.00,WUHU216DAVISVP2,2013-09-08 04:45:00,
2013-09-07 21:47:00,59.2,57.7,30.00,East,79,0.0,0.0,95,0.00,,,0.00,WUHU216DAVISVP2,2013-09-08 04:47:00,
2013-09-07 21:48:00,59.2,57.8,30.00,East,79,0.0,0.0,95,0.00,,,0.00,WUHU216DAVISVP2,2013-09-08 04:48:00,
2013-09-07 21:51:00,59.1,57.7,30.00,East,79,0.0,0.0,95,0.00,,,0.00,WUHU216DAVISVP2,2013-09-08 04:51:00,
2013-09-07 21:52:00,59.1,57.7,30.00,East,79,0.0,0.0,95,0.00,,,0.00,WUHU216DAVISVP2,2013-09-08 04:52:00,
2013-09-07 21:53:00,59.0,57.6,30.00,East,79,0.0,0.0,95,0.00,,,0.00,WUHU216DAVISVP2,2013-09-08 04:53:00,
2013-09-07 21:54:00,59.0,57.6,30.00,East,79,0.0,0.0,95,0.00,,,0.00,WUHU216DAVISVP2,2013-09-08 04:54:00,
2013-09-07 21:57:00,58.9,57.5,30.00,East,79,0.0,0.0,95,0.00,,,0.00,WUHU216DAVISVP2,2013-09-08 04:57:00,
2013-09-07 21:59:00,58.8,57.4,30.00,East,79,0.0,0.0,95,0.00,,,0.00,WUHU216DAVISVP2,2013-09-08 04:59:00,
2013-09-07 22:01:00,58.7,57.6,30.00,East,79,0.0,0.0,96,0.00,,,0.00,WUHU216DAVISVP2,2013-09-08 05:01:00,
2013-09-07 22:02:00,58.7,57.6,30.00,East,79,0.0,0.0,96,0.00,,,0.00,WUHU216DAVISVP2,2013-09-08 05:02:00,
2013-09-07 22:04:00,58.7,57.5,30.00,East,79,0.0,0.0,96,0.00,,,0.00,WUHU216DAVISVP2,2013-09-08 05:04:00,
2013-09-07 22:06:00,58.7,57.5,30.00,East,79,0.0,0.0,96,0.00,,,0.00,WUHU216DAVISVP2,2013-09-08 05:06:00,
2013-09-07 22:07:00,58.6,57.4,30.00,East,79,0.0,0.0,96,0.00,,,0.00,WUHU216DAVISVP2,2013-09-08 05:07:00,
2013-09-07 22:09:00,58.5,57.3,30.00,East,79,0.0,0.0,96,0.00,,,0.00,WUHU216DAVISVP2,2013-09-08 05:09:00,
2013-09-07 22:10:00,58.5,57.3,30.00,East,79,0.0,0.0,96,0.00,,,0.00,WUHU216DAVISVP2,2013-09-08 05:10:00,
2013-09-07 22:11:00,58.5,57.3,30.00,East,79,0.0,0.0,96,0.00,,,0.00,WUHU216DAVISVP2,2013-09-08 05:11:00,
2013-09-07 22:12:00,58.5,57.3,30.00,East,79,0.0,0.0,96,0.00,,,0.00,WUHU216DAVISVP2,2013-09-08 05:12:00,
2013-09-07 22:13:00,58.5,57.3,30.00,East,79,0.0,0.0,96,0.00,,,0.00,WUHU216DAVISVP2,2013-09-08 05:13:00,
2013-09-07 22:15:00,58.4,57.3,30.00,East,79,0.0,0.0,96,0.00,,,0.00,WUHU216DAVISVP2,2013-09-08 05:15:00,
2013-09-07 22:16:00,58.4,57.2,30.00,East,79,0.0,0.0,96,0.00,,,0.00,WUHU216DAVISVP2,2013-09-08 05:16:00,
2013-09-07 22:18:00,58.4,57.3,30.00,East,79,0.0,0.0,96,0.00,,,0.00,WUHU216DAVISVP2,2013-09-08 05:18:00,
2013-09-07 22:20:00,58.4,57.3,30.00,East,79,0.0,0.0,96,0.00,,,0.00,WUHU216DAVISVP2,2013-09-08 05:20:00,
2013-09-07 22:21:00,58.4,57.3,30.00,East,79,0.0,0.0,96,0.00,,,0.00,WUHU216DAVISVP2,2013-09-08 05:21:00,
2013-09-07 22:23:00,58.3,57.2,30.00,East,79,0.0,0.0,96,0.00,,,0.00,WUHU216DAVISVP2,2013-09-08 05:23:00,
2013-09-07 22:26:00,58.2,57.1,30.00,East,79,0.0,0.0,96,0.00,,,0.00,WUHU216DAVISVP2,2013-09-08 05:26:00,
2013-09-07 22:27:00,58.2,57.1,30.00,East,79,0.0,0.0,96,0.00,,,0.00,WUHU216DAVISVP2,2013-09-08 05:27:00,
2013-09-07 22:28:00,58.2,57.0,30.00,East,79,0.0,0.0,96,0.00,,,0.00,WUHU216DAVISVP2,2013-09-08 05:28:00,
2013-09-07 22:31:00,58.0,56.8,30.00,East,79,0.0,0.0,96,0.00,,,0.00,WUHU216DAVISVP2,2013-09-08 05:31:00,
2013-09-07 22:32:00,58.1,56.9,30.00,East,79,0.0,0.0,96,0.00,,,0.00,WUHU216DAVISVP2,2013-09-08 05:32:00,
2013-09-07 22:33:00,58.1,56.9,30.00,East,79,0.0,0.0,96,0.00,,,0.00,WUHU216DAVISVP2,2013-09-08 05:33:00,
2013-09-07 22:36:00,58.0,57.1,30.00,East,79,0.0,0.0,97,0.00,,,0.00,WUHU216DAVISVP2,2013-09-08 05:36:00,
2013-09-07 22:38:00,58.0,57.1,30.00,East,79,0.0,0.0,97,0.00,,,0.00,WUHU216DAVISVP2,2013-09-08 05:38:00,
2013-09-07 22:40:00,58.0,57.1,30.00,East,79,0.0,0.0,97,0.00,,,0.00,WUHU216DAVISVP2,2013-09-08 05:40:00,
2013-09-07 22:42:00,58.0,57.1,30.00,East,79,0.0,0.0,97,0.00,,,0.00,WUHU216DAVISVP2,2013-09-08 05:42:00,
2013-09-07 22:43:00,57.9,57.0,30.00,East,79,0.0,0.0,97,0.00,,,0.00,WUHU216DAVISVP2,2013-09-08 05:43:00,
2013-09-07 22:46:00,57.8,56.9,30.00,East,79,0.0,0.0,97,0.00,,,0.00,WUHU216DAVISVP2,2013-09-08 05:46:00,
2013-09-07 22:47:00,57.8,56.9,30.00,East,79,0.0,0.0,97,0.00,,,0.00,WUHU216DAVISVP2,2013-09-08 05:47:00,
2013-09-07 22:48:00,57.8,56.6,30.00,East,79,0.0,0.0,96,0.00,,,0.00,WUHU216DAVISVP2,2013-09-08 05:48:00,
2013-09-07 22:49:00,57.8,56.6,30.00,East,79,0.0,0.0,96,0.00,,,0.00,WUHU216DAVISVP2,2013-09-08 05:49:00,
2013-09-07 22:51:00,57.6,56.4,30.00,East,79,0.0,0.0,96,0.00,,,0.00,WUHU216DAVISVP2,2013-09-08 05:51:00,
2013-09-07 22:53:00,57.6,56.4,30.00,East,79,0.0,0.0,96,0.00,,,0.00,WUHU216DAVISVP2,2013-09-08 05:53:00,
2013-09-07 22:54:00,57.5,56.3,30.00,East,79,0.0,0.0,96,0.00,,,0.00,WUHU216DAVISVP2,2013-09-08 05:54:00,
2013-09-07 22:55:00,57.4,56.2,30.00,East,79,0.0,0.0,96,0.00,,,0.00,WUHU216DAVISVP2,2013-09-08 05:55:00,
2013-09-07 22:56:00,57.4,56.2,30.00,East,79,0.0,0.0,96,0.00,,,0.00,WUHU216DAVISVP2,2013-09-08 05:56:00,
2013-09-07 22:58:00,57.4,56.5,30.00,East,79,0.0,0.0,97,0.00,,,0.00,WUHU216DAVISVP2,2013-09-08 05:58:00,
2013-09-07 22:59:00,57.4,56.5,30.00,East,79,0.0,0.0,97,0.00,,,0.00,WUHU216DAVISVP2,2013-09-08 05:59:00,
2013-09-07 23:01:00,57.4,56.6,30.00,East,79,0.0,0.0,97,0.00,,,0.00,WUHU216DAVISVP2,2013-09-08 06:01:00,
2013-09-07 23:03:00,57.4,56.6,30.00,East,79,0.0,0.0,97,0.00,,,0.00,WUHU216DAVISVP2,2013-09-08 06:03:00,
2013-09-07 23:04:00,57.5,56.7,30.01,East,79,0.0,0.0,97,0.00,,,0.00,WUHU216DAVISVP2,2013-09-08 06:04:00,
2013-09-07 23:07:00,57.5,56.7,30.01,East,79,0.0,0.0,97,0.00,,,0.00,WUHU216DAVISVP2,2013-09-08 06:07:00,
2013-09-07 23:09:00,57.5,56.9,30.00,East,79,0.0,0.0,98,0.00,,,0.00,WUHU216DAVISVP2,2013-09-08 06:09:00,
2013-09-07 23:10:00,57.5,56.7,30.00,East,79,0.0,0.0,97,0.00,,,0.00,WUHU216DAVISVP2,2013-09-08 06:10:00,
2013-09-07 23:12:00,57.5,56.6,30.00,East,79,0.0,0.0,97,0.00,,,0.00,WUHU216DAVISVP2,2013-09-08 06:12:00,
2013-09-07 23:13:00,57.4,56.5,30.00,East,79,0.0,0.0,97,0.00,,,0.00,WUHU216DAVISVP2,2013-09-08 06:13:00,
2013-09-07 23:14:00,57.4,56.5,30.00,East,79,0.0,0.0,97,0.00,,,0.00,WUHU216DAVISVP2,2013-09-08 06:14:00,
2013-09-07 23:15:00,57.4,56.5,30.00,East,79,0.0,0.0,97,0.00,,,0.00,WUHU216DAVISVP2,2013-09-08 06:15:00,
2013-09-07 23:17:00,57.4,56.5,30.00,East,79,0.0,0.0,97,0.00,,,0.00,WUHU216DAVISVP2,2013-09-08 06:17:00,
2013-09-07 23:18:00,57.4,56.5,30.00,East,79,0.0,0.0,97,0.00,,,0.00,WUHU216DAVISVP2,2013-09-08 06:18:00,
2013-09-07 23:19:00,57.3,56.4,30.00,East,79,0.0,0.0,97,0.00,,,0.00,WUHU216DAVISVP2,2013-09-08 06:19:00,
2013-09-07 23:20:00,57.3,56.4,30.00,East,79,0.0,0.0,97,0.00,,,0.00,WUHU216DAVISVP2,2013-09-08 06:20:00,
2013-09-07 23:22:00,57.2,56.3,30.00,East,79,0.0,0.0,97,0.00,,,0.00,WUHU216DAVISVP2,2013-09-08 06:22:00,
2013-09-07 23:23:00,57.2,56.3,30.00,East,79,0.0,0.0,97,0.00,,,0.00,WUHU216DAVISVP2,2013-09-08 06:23:00,
2013-09-07 23:24:00,57.2,56.3,30.00,East,79,0.0,0.0,97,0.00,,,0.00,WUHU216DAVISVP2,2013-09-08 06:24:00,
2013-09-07 23:25:00,57.2,56.3,30.00,East,79,0.0,0.0,97,0.00,,,0.00,WUHU216DAVISVP2,2013-09-08 06:25:00,
2013-09-07 23:28:00,57.0,56.1,30.01,East,79,0.0,0.0,97,0.00,,,0.00,WUHU216DAVISVP2,2013-09-08 06:28:00,
2013-09-07 23:29:00,57.0,56.1,30.00,East,79,0.0,0.0,97,0.00,,,0.00,WUHU216DAVISVP2,2013-09-08 06:29:00,
2013-09-07 23:30:00,56.9,56.0,30.00,East,79,0.0,0.0,97,0.00,,,0.00,WUHU216DAVISVP2,2013-09-08 06:30:00,
2013-09-07 23:33:00,56.8,55.9,30.00,East,79,0.0,0.0,97,0.00,,,0.00,WUHU216DAVISVP2,2013-09-08 06:33:00,
2013-09-07 23:34:00,56.9,56.0,30.00,East,79,0.0,0.0,97,0.00,,,0.00,WUHU216DAVISVP2,2013-09-08 06:34:00,
2013-09-07 23:35:00,56.9,56.0,30.00,East,79,0.0,0.0,97,0.00,,,0.00,WUHU216DAVISVP2,2013-09-08 06:35:00,
2013-09-07 23:38:00,56.8,55.9,30.00,East,79,0.0,0.0,97,0.00,,,0.00,WUHU216DAVISVP2,2013-09-08 06:38:00,
2013-09-07 23:39:00,56.8,55.9,30.00,East,79,0.0,0.0,97,0.00,,,0.00,WUHU216DAVISVP2,2013-09-08 06:39:00,
2013-09-07 23:40:00,56.8,55.9,30.00,East,79,0.0,0.0,97,0.00,,,0.00,WUHU216DAVISVP2,2013-09-08 06:40:00,
2013-09-07 23:43:00,56.7,55.8,30.00,East,79,0.0,0.0,97,0.00,,,0.00,WUHU216DAVISVP2,2013-09-08 06:43:00,
2013-09-07 23:45:00,56.7,55.9,30.00,East,79,0.0,0.0,97,0.00,,,0.00,WUHU216DAVISVP2,2013-09-08 06:45:00,
2013-09-07 23:46:00,56.7,55.9,30.00,East,79,0.0,0.0,97,0.00,,,0.00,WUHU216DAVISVP2,2013-09-08 06:46:00,
2013-09-07 23:47:00,56.7,55.9,30.00,East,79,0.0,0.0,97,0.00,,,0.00,WUHU216DAVISVP2,2013-09-08 06:47:00,
2013-09-07 23:49:00,56.7,56.1,30.00,East,79,0.0,0.0,98,0.00,,,0.00,WUHU216DAVISVP2,2013-09-08 06:49:00,
2013-09-07 23:50:00,56.7,56.1,30.00,East,79,0.0,0.0,98,0.00,,,0.00,WUHU216DAVISVP2,2013-09-08 06:50:00,
2013-09-07 23:51:00,56.7,56.1,30.00,East,79,0.0,0.0,98,0.00,,,0.00,WUHU216DAVISVP2,2013-09-08 06:51:00,
2013-09-07 23:54:00,56.7,55.8,30.00,East,79,0.0,0.0,97,0.00,,,0.00,WUHU216DAVISVP2,2013-09-08 06:54:00,
2013-09-07 23:55:00,56.6,55.7,30.00,East,79,0.0,0.0,97,0.00,,,0.00,WUHU216DAVISVP2,2013-09-08 06:55:00,
2013-09-07 23:56:00,56.6,55.7,30.00,East,79,0.0,0.0,97,0.00,,,0.00,WUHU216DAVISVP2,2013-09-08 06:56:00,
2013-09-07 23:59:00,56.4,55.5,30.00,East,79,0.0,0.0,97,0.00,,,0.00,WUHU216DAVISVP2,2013-09-08 06:59:00,